<?xml version='1.0' encoding='UTF-8'?><gpx version="1.1" creator="JPX - https://github.com/jenetics/jpx" xmlns="http://www.topografix.com/GPX/1/1"><trk><trkseg><trkpt lat="37.8351683" lon="12.4770343"><ele>9.0</ele><time>2026-05-01T08:48:56.702Z</time></trkpt><trkpt lat="37.8352203" lon="12.4769612"><ele>9.0</ele><time>2026-05-01T08:48:59.701Z</time></trkpt><trkpt lat="37.8352615" lon="12.4768993"><ele>9.0</ele><time>2026-05-01T08:49:01.701Z</time></trkpt><trkpt lat="37.8353067" lon="12.4768372"><ele>9.0</ele><time>2026-05-01T08:49:03.701Z</time></trkpt><trkpt lat="37.8353553" lon="12.4767857"><ele>9.0</ele><time>2026-05-01T08:49:05.702Z</time></trkpt><trkpt lat="37.835419" lon="12.4767027"><ele>9.0</ele><time>2026-05-01T08:49:08.701Z</time></trkpt><trkpt lat="37.8354752" lon="12.4766132"><ele>9.0</ele><time>2026-05-01T08:49:11.626Z</time></trkpt><trkpt lat="37.8355025" lon="12.4765402"><ele>9.0</ele><time>2026-05-01T08:49:13.701Z</time></trkpt><trkpt lat="37.8355587" lon="12.476455"><ele>9.0</ele><time>2026-05-01T08:49:16.624Z</time></trkpt><trkpt lat="37.8356031" lon="12.4763963"><ele>9.0</ele><time>2026-05-01T08:49:18.702Z</time></trkpt><trkpt lat="37.8356536" lon="12.476302"><ele>9.0</ele><time>2026-05-01T08:49:21.701Z</time></trkpt><trkpt lat="37.8356948" lon="12.4762227"><ele>9.0</ele><time>2026-05-01T08:49:24.702Z</time></trkpt><trkpt lat="37.8357429" lon="12.4761446"><ele>9.000000000000002</ele><time>2026-05-01T08:49:27.701Z</time></trkpt><trkpt lat="37.8357908" lon="12.4760709"><ele>9.0</ele><time>2026-05-01T08:49:30.626Z</time></trkpt><trkpt lat="37.8358298" lon="12.4760081"><ele>9.0</ele><time>2026-05-01T08:49:33.563Z</time></trkpt><trkpt lat="37.8358875" lon="12.4759444"><ele>9.0</ele><time>2026-05-01T08:49:37.701Z</time></trkpt><trkpt lat="37.8359584" lon="12.4759344"><ele>9.0</ele><time>2026-05-01T08:49:40.702Z</time></trkpt><trkpt lat="37.8359964" lon="12.4760028"><ele>9.000000000000002</ele><time>2026-05-01T08:49:43.701Z</time></trkpt><trkpt lat="37.8360647" lon="12.4760299"><ele>9.0</ele><time>2026-05-01T08:49:48.701Z</time></trkpt><trkpt lat="37.8361285" lon="12.4760215"><ele>8.333333333333334</ele><time>2026-05-01T08:49:52.701Z</time></trkpt><trkpt lat="37.8361906" lon="12.4759842"><ele>7.666666666666667</ele><time>2026-05-01T08:49:56.701Z</time></trkpt><trkpt lat="37.8362593" lon="12.4759336"><ele>7.0</ele><time>2026-05-01T08:50:00.701Z</time></trkpt><trkpt lat="37.8363511" lon="12.4759784"><ele>6.333333333333334</ele><time>2026-05-01T08:50:17.702Z</time></trkpt><trkpt lat="37.8364284" lon="12.4759638"><ele>5.666666666666667</ele><time>2026-05-01T08:50:19.702Z</time></trkpt><trkpt lat="37.8364984" lon="12.4759124"><ele>5.0</ele><time>2026-05-01T08:50:22.622Z</time></trkpt><trkpt lat="37.8365453" lon="12.4758377"><ele>5.0</ele><time>2026-05-01T08:50:25.712Z</time></trkpt><trkpt lat="37.8365819" lon="12.4757627"><ele>5.0</ele><time>2026-05-01T08:50:28.702Z</time></trkpt><trkpt lat="37.8366204" lon="12.4756962"><ele>5.0</ele><time>2026-05-01T08:50:31.702Z</time></trkpt><trkpt lat="37.8366555" lon="12.4756173"><ele>5.0</ele><time>2026-05-01T08:50:34.702Z</time></trkpt><trkpt lat="37.8367085" lon="12.4755503"><ele>5.0</ele><time>2026-05-01T08:50:38.701Z</time></trkpt><trkpt lat="37.8367686" lon="12.4754921"><ele>5.0</ele><time>2026-05-01T08:50:42.702Z</time></trkpt><trkpt lat="37.8367951" lon="12.4754081"><ele>5.0</ele><time>2026-05-01T08:50:46.702Z</time></trkpt><trkpt lat="37.8368304" lon="12.4753283"><ele>5.142857142857142</ele><time>2026-05-01T08:50:50.702Z</time></trkpt><trkpt lat="37.8368707" lon="12.4752583"><ele>5.285714285714286</ele><time>2026-05-01T08:50:54.702Z</time></trkpt><trkpt lat="37.8369063" lon="12.4751892"><ele>5.428571428571429</ele><time>2026-05-01T08:50:58.713Z</time></trkpt><trkpt lat="37.8369479" lon="12.4751156"><ele>5.571428571428571</ele><time>2026-05-01T08:51:02.701Z</time></trkpt><trkpt lat="37.8369872" lon="12.4750302"><ele>5.714285714285714</ele><time>2026-05-01T08:51:06.702Z</time></trkpt><trkpt lat="37.8370234" lon="12.4749449"><ele>5.857142857142857</ele><time>2026-05-01T08:51:09.702Z</time></trkpt><trkpt lat="37.8370544" lon="12.4748554"><ele>6.0</ele><time>2026-05-01T08:51:12.702Z</time></trkpt><trkpt lat="37.8370866" lon="12.4747743"><ele>5.999999999999999</ele><time>2026-05-01T08:51:15.648Z</time></trkpt><trkpt lat="37.8371208" lon="12.4746868"><ele>6.0</ele><time>2026-05-01T08:51:18.701Z</time></trkpt><trkpt lat="37.837154" lon="12.4746065"><ele>6.0</ele><time>2026-05-01T08:51:21.702Z</time></trkpt><trkpt lat="37.8371846" lon="12.4745235"><ele>6.0</ele><time>2026-05-01T08:51:24.702Z</time></trkpt><trkpt lat="37.8372164" lon="12.474438"><ele>6.0</ele><time>2026-05-01T08:51:27.702Z</time></trkpt><trkpt lat="37.8372525" lon="12.4743463"><ele>5.999999999999999</ele><time>2026-05-01T08:51:30.702Z</time></trkpt><trkpt lat="37.8372822" lon="12.4742753"><ele>6.0</ele><time>2026-05-01T08:51:32.683Z</time></trkpt><trkpt lat="37.8373144" lon="12.4742047"><ele>5.428571428571428</ele><time>2026-05-01T08:51:34.702Z</time></trkpt><trkpt lat="37.8373458" lon="12.4741083"><ele>4.857142857142857</ele><time>2026-05-01T08:51:37.609Z</time></trkpt><trkpt lat="37.837376" lon="12.4740355"><ele>4.285714285714286</ele><time>2026-05-01T08:51:40.31Z</time></trkpt><trkpt lat="37.8374115" lon="12.473954"><ele>3.714285714285714</ele><time>2026-05-01T08:51:43.702Z</time></trkpt><trkpt lat="37.8374442" lon="12.473871"><ele>3.1428571428571423</ele><time>2026-05-01T08:51:48.702Z</time></trkpt><trkpt lat="37.837479" lon="12.4737844"><ele>2.571428571428571</ele><time>2026-05-01T08:51:53.701Z</time></trkpt><trkpt lat="37.8375096" lon="12.4736958"><ele>2.0</ele><time>2026-05-01T08:51:56.702Z</time></trkpt><trkpt lat="37.8375353" lon="12.4736193"><ele>2.0</ele><time>2026-05-01T08:51:58.701Z</time></trkpt><trkpt lat="37.8375604" lon="12.4735392"><ele>1.9999999999999998</ele><time>2026-05-01T08:52:00.701Z</time></trkpt><trkpt lat="37.8375832" lon="12.4734581"><ele>2.0</ele><time>2026-05-01T08:52:02.702Z</time></trkpt><trkpt lat="37.8376001" lon="12.4733807"><ele>2.0</ele><time>2026-05-01T08:52:04.701Z</time></trkpt><trkpt lat="37.8376189" lon="12.47327"><ele>1.9999999999999998</ele><time>2026-05-01T08:52:07.702Z</time></trkpt><trkpt lat="37.8376332" lon="12.4731923"><ele>2.0</ele><time>2026-05-01T08:52:09.702Z</time></trkpt><trkpt lat="37.8376394" lon="12.4730884"><ele>2.0</ele><time>2026-05-01T08:52:12.702Z</time></trkpt><trkpt lat="37.8376396" lon="12.4729816"><ele>2.1666666666666665</ele><time>2026-05-01T08:52:15.702Z</time></trkpt><trkpt lat="37.8376392" lon="12.4728721"><ele>2.333333333333333</ele><time>2026-05-01T08:52:18.702Z</time></trkpt><trkpt lat="37.8376304" lon="12.4727566"><ele>2.5</ele><time>2026-05-01T08:52:21.702Z</time></trkpt><trkpt lat="37.8376199" lon="12.4726658"><ele>2.6666666666666665</ele><time>2026-05-01T08:52:24.701Z</time></trkpt><trkpt lat="37.837613" lon="12.4725748"><ele>2.8333333333333335</ele><time>2026-05-01T08:52:29.702Z</time></trkpt><trkpt lat="37.8376263" lon="12.4724945"><ele>3.0</ele><time>2026-05-01T08:52:34.702Z</time></trkpt><trkpt lat="37.8376319" lon="12.4724084"><ele>2.9999999999999996</ele><time>2026-05-01T08:52:39.688Z</time></trkpt><trkpt lat="37.8376441" lon="12.4723154"><ele>3.0</ele><time>2026-05-01T08:52:44.702Z</time></trkpt><trkpt lat="37.8376616" lon="12.4722272"><ele>3.0</ele><time>2026-05-01T08:52:49.702Z</time></trkpt><trkpt lat="37.8376726" lon="12.4721444"><ele>3.0</ele><time>2026-05-01T08:52:53.71Z</time></trkpt><trkpt lat="37.8376855" lon="12.4720611"><ele>3.0</ele><time>2026-05-01T08:52:56.702Z</time></trkpt><trkpt lat="37.8376913" lon="12.4719525"><ele>2.9999999999999996</ele><time>2026-05-01T08:52:59.701Z</time></trkpt><trkpt lat="37.837696" lon="12.4718713"><ele>3.0</ele><time>2026-05-01T08:53:01.702Z</time></trkpt><trkpt lat="37.8377069" lon="12.471761"><ele>3.0</ele><time>2026-05-01T08:53:04.702Z</time></trkpt><trkpt lat="37.8377154" lon="12.4716546"><ele>3.0</ele><time>2026-05-01T08:53:07.581Z</time></trkpt><trkpt lat="37.8377228" lon="12.4715381"><ele>3.0</ele><time>2026-05-01T08:53:10.532Z</time></trkpt><trkpt lat="37.8377217" lon="12.4714428"><ele>3.0</ele><time>2026-05-01T08:53:12.702Z</time></trkpt><trkpt lat="37.8377144" lon="12.4713624"><ele>3.0</ele><time>2026-05-01T08:53:14.665Z</time></trkpt><trkpt lat="37.8376987" lon="12.4712794"><ele>3.0</ele><time>2026-05-01T08:53:16.701Z</time></trkpt><trkpt lat="37.8376612" lon="12.4711741"><ele>2.9999999999999996</ele><time>2026-05-01T08:53:19.604Z</time></trkpt><trkpt lat="37.8376246" lon="12.4710964"><ele>3.0</ele><time>2026-05-01T08:53:21.702Z</time></trkpt><trkpt lat="37.8375754" lon="12.4710266"><ele>3.0</ele><time>2026-05-01T08:53:24.702Z</time></trkpt><trkpt lat="37.8375224" lon="12.4709752"><ele>3.0</ele><time>2026-05-01T08:53:29.7Z</time></trkpt><trkpt lat="37.8374675" lon="12.4709144"><ele>3.0</ele><time>2026-05-01T08:53:34.702Z</time></trkpt><trkpt lat="37.8374103" lon="12.4708569"><ele>2.9999999999999996</ele><time>2026-05-01T08:53:39.701Z</time></trkpt><trkpt lat="37.8373568" lon="12.4707977"><ele>3.0</ele><time>2026-05-01T08:53:44.702Z</time></trkpt><trkpt lat="37.8373043" lon="12.4707369"><ele>2.9999999999999996</ele><time>2026-05-01T08:53:49.702Z</time></trkpt><trkpt lat="37.8372612" lon="12.4706764"><ele>3.0</ele><time>2026-05-01T08:53:53.702Z</time></trkpt><trkpt lat="37.8372114" lon="12.4706035"><ele>3.0</ele><time>2026-05-01T08:53:56.702Z</time></trkpt><trkpt lat="37.8371633" lon="12.4705491"><ele>3.0</ele><time>2026-05-01T08:53:58.702Z</time></trkpt><trkpt lat="37.8370943" lon="12.4704682"><ele>3.0</ele><time>2026-05-01T08:54:01.67Z</time></trkpt><trkpt lat="37.8370372" lon="12.4704183"><ele>2.9999999999999996</ele><time>2026-05-01T08:54:03.702Z</time></trkpt><trkpt lat="37.8369854" lon="12.4703689"><ele>3.0</ele><time>2026-05-01T08:54:05.7Z</time></trkpt><trkpt lat="37.8369187" lon="12.470295"><ele>3.1666666666666665</ele><time>2026-05-01T08:54:08.606Z</time></trkpt><trkpt lat="37.8368431" lon="12.4702155"><ele>3.333333333333333</ele><time>2026-05-01T08:54:11.7Z</time></trkpt><trkpt lat="37.8367949" lon="12.4701627"><ele>3.5</ele><time>2026-05-01T08:54:13.7Z</time></trkpt><trkpt lat="37.8367278" lon="12.4700864"><ele>3.6666666666666665</ele><time>2026-05-01T08:54:16.701Z</time></trkpt><trkpt lat="37.8366628" lon="12.4700087"><ele>3.833333333333333</ele><time>2026-05-01T08:54:19.701Z</time></trkpt><trkpt lat="37.8365895" lon="12.469936"><ele>4.0</ele><time>2026-05-01T08:54:22.701Z</time></trkpt><trkpt lat="37.8365331" lon="12.4698873"><ele>4.0</ele><time>2026-05-01T08:54:25.701Z</time></trkpt><trkpt lat="37.8364758" lon="12.4698362"><ele>3.9999999999999996</ele><time>2026-05-01T08:54:30.701Z</time></trkpt><trkpt lat="37.8364171" lon="12.4697788"><ele>4.0</ele><time>2026-05-01T08:54:35.701Z</time></trkpt><trkpt lat="37.8363659" lon="12.4697078"><ele>4.0</ele><time>2026-05-01T08:54:40.607Z</time></trkpt><trkpt lat="37.8363229" lon="12.4696457"><ele>3.9999999999999996</ele><time>2026-05-01T08:54:44.701Z</time></trkpt><trkpt lat="37.8362758" lon="12.4695873"><ele>4.0</ele><time>2026-05-01T08:54:49.7Z</time></trkpt><trkpt lat="37.8362267" lon="12.469522"><ele>4.0</ele><time>2026-05-01T08:54:54.609Z</time></trkpt><trkpt lat="37.8361706" lon="12.4694455"><ele>3.9999999999999996</ele><time>2026-05-01T08:54:58.7Z</time></trkpt><trkpt lat="37.8361135" lon="12.46939"><ele>4.0</ele><time>2026-05-01T08:55:01.701Z</time></trkpt><trkpt lat="37.8360306" lon="12.4693239"><ele>4.0</ele><time>2026-05-01T08:55:05.701Z</time></trkpt><trkpt lat="37.8359756" lon="12.46927"><ele>4.0</ele><time>2026-05-01T08:55:08.666Z</time></trkpt><trkpt lat="37.8359314" lon="12.4692"><ele>3.9999999999999996</ele><time>2026-05-01T08:55:11.709Z</time></trkpt><trkpt lat="37.8359104" lon="12.4691126"><ele>4.0</ele><time>2026-05-01T08:55:14.7Z</time></trkpt><trkpt lat="37.8359282" lon="12.4690183"><ele>4.142857142857142</ele><time>2026-05-01T08:55:17.701Z</time></trkpt><trkpt lat="37.8359738" lon="12.4689302"><ele>4.285714285714286</ele><time>2026-05-01T08:55:20.701Z</time></trkpt><trkpt lat="37.8360243" lon="12.4688672"><ele>4.428571428571429</ele><time>2026-05-01T08:55:23.667Z</time></trkpt><trkpt lat="37.8360856" lon="12.4688443"><ele>4.571428571428571</ele><time>2026-05-01T08:55:26.708Z</time></trkpt><trkpt lat="37.8361517" lon="12.4688061"><ele>4.714285714285714</ele><time>2026-05-01T08:55:29.708Z</time></trkpt><trkpt lat="37.8362068" lon="12.4687266"><ele>4.857142857142857</ele><time>2026-05-01T08:55:32.7Z</time></trkpt><trkpt lat="37.8362713" lon="12.468678"><ele>5.0</ele><time>2026-05-01T08:55:35.701Z</time></trkpt><trkpt lat="37.836332" lon="12.4686257"><ele>5.333333333333334</ele><time>2026-05-01T08:55:38.7Z</time></trkpt><trkpt lat="37.8363807" lon="12.4685536"><ele>5.666666666666667</ele><time>2026-05-01T08:55:41.649Z</time></trkpt><trkpt lat="37.8364246" lon="12.4684747"><ele>6.0</ele><time>2026-05-01T08:55:44.701Z</time></trkpt><trkpt lat="37.8364645" lon="12.4683939"><ele>6.333333333333334</ele><time>2026-05-01T08:55:47.669Z</time></trkpt><trkpt lat="37.8365051" lon="12.4682991"><ele>6.666666666666667</ele><time>2026-05-01T08:55:51.701Z</time></trkpt><trkpt lat="37.8365379" lon="12.4682171"><ele>7.0</ele><time>2026-05-01T08:55:54.701Z</time></trkpt><trkpt lat="37.8365696" lon="12.4681278"><ele>7.000000000000001</ele><time>2026-05-01T08:55:57.7Z</time></trkpt><trkpt lat="37.8366237" lon="12.4680553"><ele>7.0</ele><time>2026-05-01T08:56:00.701Z</time></trkpt><trkpt lat="37.8367016" lon="12.4680392"><ele>7.0</ele><time>2026-05-01T08:56:03.7Z</time></trkpt><trkpt lat="37.8367815" lon="12.468029"><ele>7.0</ele><time>2026-05-01T08:56:07.626Z</time></trkpt><trkpt lat="37.8368623" lon="12.4680097"><ele>7.000000000000001</ele><time>2026-05-01T08:56:11.7Z</time></trkpt><trkpt lat="37.8369322" lon="12.4680338"><ele>7.0</ele><time>2026-05-01T08:56:14.7Z</time></trkpt><trkpt lat="37.8370045" lon="12.4680542"><ele>6.833333333333334</ele><time>2026-05-01T08:56:17.7Z</time></trkpt><trkpt lat="37.8370682" lon="12.4680114"><ele>6.666666666666667</ele><time>2026-05-01T08:56:21.7Z</time></trkpt><trkpt lat="37.8371471" lon="12.4680596"><ele>6.5</ele><time>2026-05-01T08:56:25.7Z</time></trkpt><trkpt lat="37.837244" lon="12.4680753"><ele>6.333333333333334</ele><time>2026-05-01T08:56:28.7Z</time></trkpt><trkpt lat="37.8373209" lon="12.4681012"><ele>6.166666666666667</ele><time>2026-05-01T08:56:31.701Z</time></trkpt><trkpt lat="37.8373924" lon="12.4681423"><ele>6.0</ele><time>2026-05-01T08:56:34.64Z</time></trkpt><trkpt lat="37.837469" lon="12.4681759"><ele>5.999999999999999</ele><time>2026-05-01T08:56:37.701Z</time></trkpt><trkpt lat="37.8375347" lon="12.4681952"><ele>6.0</ele><time>2026-05-01T08:56:40.7Z</time></trkpt><trkpt lat="37.837603" lon="12.468213"><ele>6.0</ele><time>2026-05-01T08:56:43.7Z</time></trkpt><trkpt lat="37.8376703" lon="12.4682347"><ele>6.0</ele><time>2026-05-01T08:56:46.701Z</time></trkpt><trkpt lat="37.8377394" lon="12.4682514"><ele>6.0</ele><time>2026-05-01T08:56:49.701Z</time></trkpt><trkpt lat="37.8378077" lon="12.4682596"><ele>5.999999999999999</ele><time>2026-05-01T08:56:52.701Z</time></trkpt><trkpt lat="37.8378765" lon="12.4682592"><ele>6.0</ele><time>2026-05-01T08:56:55.701Z</time></trkpt><trkpt lat="37.8379426" lon="12.4682628"><ele>5.857142857142857</ele><time>2026-05-01T08:56:58.601Z</time></trkpt><trkpt lat="37.8380121" lon="12.4682606"><ele>5.714285714285714</ele><time>2026-05-01T08:57:01.66Z</time></trkpt><trkpt lat="37.8380811" lon="12.4682629"><ele>5.571428571428571</ele><time>2026-05-01T08:57:04.701Z</time></trkpt><trkpt lat="37.8381502" lon="12.468265"><ele>5.428571428571429</ele><time>2026-05-01T08:57:07.7Z</time></trkpt><trkpt lat="37.8382265" lon="12.4682578"><ele>5.285714285714286</ele><time>2026-05-01T08:57:10.7Z</time></trkpt><trkpt lat="37.8382878" lon="12.4682375"><ele>5.142857142857142</ele><time>2026-05-01T08:57:13.7Z</time></trkpt><trkpt lat="37.8383557" lon="12.4682055"><ele>5.0</ele><time>2026-05-01T08:57:16.701Z</time></trkpt><trkpt lat="37.83842" lon="12.4681741"><ele>4.857142857142857</ele><time>2026-05-01T08:57:19.643Z</time></trkpt><trkpt lat="37.8384965" lon="12.4681387"><ele>4.714285714285714</ele><time>2026-05-01T08:57:22.701Z</time></trkpt><trkpt lat="37.8385582" lon="12.4681058"><ele>4.571428571428571</ele><time>2026-05-01T08:57:25.704Z</time></trkpt><trkpt lat="37.8386247" lon="12.4680676"><ele>4.428571428571429</ele><time>2026-05-01T08:57:28.7Z</time></trkpt><trkpt lat="37.8386879" lon="12.4680329"><ele>4.285714285714286</ele><time>2026-05-01T08:57:31.7Z</time></trkpt><trkpt lat="37.8387531" lon="12.4680068"><ele>4.142857142857142</ele><time>2026-05-01T08:57:34.7Z</time></trkpt><trkpt lat="37.8388258" lon="12.4679788"><ele>4.0</ele><time>2026-05-01T08:57:38.701Z</time></trkpt><trkpt lat="37.838906" lon="12.467935"><ele>3.8571428571428568</ele><time>2026-05-01T08:57:42.623Z</time></trkpt><trkpt lat="37.8389643" lon="12.4678759"><ele>3.714285714285714</ele><time>2026-05-01T08:57:46.701Z</time></trkpt><trkpt lat="37.8390158" lon="12.4678199"><ele>3.571428571428571</ele><time>2026-05-01T08:57:49.707Z</time></trkpt><trkpt lat="37.8390739" lon="12.4677664"><ele>3.4285714285714284</ele><time>2026-05-01T08:57:52.7Z</time></trkpt><trkpt lat="37.8391306" lon="12.4677068"><ele>3.2857142857142856</ele><time>2026-05-01T08:57:55.7Z</time></trkpt><trkpt lat="37.839183" lon="12.4676478"><ele>3.1428571428571423</ele><time>2026-05-01T08:57:58.7Z</time></trkpt><trkpt lat="37.8392315" lon="12.4675819"><ele>3.0</ele><time>2026-05-01T08:58:01.701Z</time></trkpt><trkpt lat="37.8392794" lon="12.4675132"><ele>2.9999999999999996</ele><time>2026-05-01T08:58:04.701Z</time></trkpt><trkpt lat="37.8393271" lon="12.4674465"><ele>3.0</ele><time>2026-05-01T08:58:07.701Z</time></trkpt><trkpt lat="37.839377" lon="12.4673809"><ele>3.0</ele><time>2026-05-01T08:58:10.701Z</time></trkpt><trkpt lat="37.8394287" lon="12.4673201"><ele>3.0</ele><time>2026-05-01T08:58:13.638Z</time></trkpt><trkpt lat="37.8394917" lon="12.4672697"><ele>3.0</ele><time>2026-05-01T08:58:16.701Z</time></trkpt><trkpt lat="37.8395612" lon="12.4672449"><ele>2.9999999999999996</ele><time>2026-05-01T08:58:19.701Z</time></trkpt><trkpt lat="37.8396317" lon="12.4672316"><ele>3.0</ele><time>2026-05-01T08:58:22.7Z</time></trkpt><trkpt lat="37.8397088" lon="12.4672122"><ele>2.9999999999999996</ele><time>2026-05-01T08:58:25.701Z</time></trkpt><trkpt lat="37.8397937" lon="12.4671986"><ele>3.0</ele><time>2026-05-01T08:58:29.7Z</time></trkpt><trkpt lat="37.8398603" lon="12.4671711"><ele>3.0</ele><time>2026-05-01T08:58:32.661Z</time></trkpt><trkpt lat="37.8399289" lon="12.4671613"><ele>3.0</ele><time>2026-05-01T08:58:35.716Z</time></trkpt><trkpt lat="37.8399985" lon="12.4671645"><ele>3.0</ele><time>2026-05-01T08:58:38.7Z</time></trkpt><trkpt lat="37.8400678" lon="12.4671497"><ele>2.9999999999999996</ele><time>2026-05-01T08:58:41.7Z</time></trkpt><trkpt lat="37.8401357" lon="12.4671329"><ele>3.0</ele><time>2026-05-01T08:58:44.701Z</time></trkpt><trkpt lat="37.8402002" lon="12.4671047"><ele>3.1428571428571423</ele><time>2026-05-01T08:58:47.701Z</time></trkpt><trkpt lat="37.8402631" lon="12.4670691"><ele>3.2857142857142856</ele><time>2026-05-01T08:58:50.641Z</time></trkpt><trkpt lat="37.840325" lon="12.4670352"><ele>3.4285714285714284</ele><time>2026-05-01T08:58:53.7Z</time></trkpt><trkpt lat="37.8403992" lon="12.4669865"><ele>3.571428571428571</ele><time>2026-05-01T08:58:57.701Z</time></trkpt><trkpt lat="37.8404555" lon="12.4669436"><ele>3.714285714285714</ele><time>2026-05-01T08:59:00.7Z</time></trkpt><trkpt lat="37.8405117" lon="12.4668949"><ele>3.8571428571428568</ele><time>2026-05-01T08:59:03.701Z</time></trkpt><trkpt lat="37.8405691" lon="12.4668477"><ele>4.0</ele><time>2026-05-01T08:59:06.7Z</time></trkpt><trkpt lat="37.8406286" lon="12.4667977"><ele>4.0</ele><time>2026-05-01T08:59:09.7Z</time></trkpt><trkpt lat="37.8406823" lon="12.4667454"><ele>3.9999999999999996</ele><time>2026-05-01T08:59:12.62Z</time></trkpt><trkpt lat="37.8407419" lon="12.4666943"><ele>4.0</ele><time>2026-05-01T08:59:15.666Z</time></trkpt><trkpt lat="37.8407985" lon="12.4666434"><ele>4.0</ele><time>2026-05-01T08:59:18.682Z</time></trkpt><trkpt lat="37.8408533" lon="12.4665863"><ele>3.9999999999999996</ele><time>2026-05-01T08:59:21.701Z</time></trkpt><trkpt lat="37.8409065" lon="12.4665264"><ele>4.0</ele><time>2026-05-01T08:59:24.7Z</time></trkpt><trkpt lat="37.8409538" lon="12.466467"><ele>4.0</ele><time>2026-05-01T08:59:27.7Z</time></trkpt><trkpt lat="37.8410014" lon="12.4664065"><ele>4.0</ele><time>2026-05-01T08:59:30.7Z</time></trkpt><trkpt lat="37.8410464" lon="12.4663472"><ele>3.9999999999999996</ele><time>2026-05-01T08:59:33.626Z</time></trkpt><trkpt lat="37.8410876" lon="12.4662866"><ele>4.0</ele><time>2026-05-01T08:59:36.236Z</time></trkpt><trkpt lat="37.8411303" lon="12.4661984"><ele>4.0</ele><time>2026-05-01T08:59:39.666Z</time></trkpt><trkpt lat="37.8411648" lon="12.4661189"><ele>3.9999999999999996</ele><time>2026-05-01T08:59:42.7Z</time></trkpt><trkpt lat="37.8411987" lon="12.4660377"><ele>4.0</ele><time>2026-05-01T08:59:45.701Z</time></trkpt><trkpt lat="37.8412264" lon="12.4659623"><ele>4.0</ele><time>2026-05-01T08:59:48.701Z</time></trkpt><trkpt lat="37.8412535" lon="12.4658895"><ele>4.0</ele><time>2026-05-01T08:59:51.645Z</time></trkpt><trkpt lat="37.8412832" lon="12.4658176"><ele>3.9999999999999996</ele><time>2026-05-01T08:59:54.7Z</time></trkpt><trkpt lat="37.8413214" lon="12.4657219"><ele>4.0</ele><time>2026-05-01T08:59:58.701Z</time></trkpt><trkpt lat="37.8413374" lon="12.4656442"><ele>4.0</ele><time>2026-05-01T09:00:01.641Z</time></trkpt><trkpt lat="37.8413576" lon="12.4655616"><ele>3.9999999999999996</ele><time>2026-05-01T09:00:04.667Z</time></trkpt><trkpt lat="37.8413812" lon="12.4654632"><ele>4.0</ele><time>2026-05-01T09:00:08.701Z</time></trkpt><trkpt lat="37.8414076" lon="12.4653575"><ele>4.0</ele><time>2026-05-01T09:00:12.701Z</time></trkpt><trkpt lat="37.8414349" lon="12.4652559"><ele>4.142857142857142</ele><time>2026-05-01T09:00:16.701Z</time></trkpt><trkpt lat="37.8414577" lon="12.4651717"><ele>4.285714285714286</ele><time>2026-05-01T09:00:19.701Z</time></trkpt><trkpt lat="37.8414816" lon="12.465091"><ele>4.428571428571429</ele><time>2026-05-01T09:00:22.701Z</time></trkpt><trkpt lat="37.8415083" lon="12.4650108"><ele>4.571428571428571</ele><time>2026-05-01T09:00:25.7Z</time></trkpt><trkpt lat="37.8415344" lon="12.4649274"><ele>4.714285714285714</ele><time>2026-05-01T09:00:28.7Z</time></trkpt><trkpt lat="37.8415661" lon="12.4648443"><ele>4.857142857142857</ele><time>2026-05-01T09:00:31.701Z</time></trkpt><trkpt lat="37.8415974" lon="12.4647634"><ele>5.0</ele><time>2026-05-01T09:00:34.7Z</time></trkpt><trkpt lat="37.8416145" lon="12.4646795"><ele>5.285714285714286</ele><time>2026-05-01T09:00:37.7Z</time></trkpt><trkpt lat="37.8416231" lon="12.4645931"><ele>5.571428571428571</ele><time>2026-05-01T09:00:40.699Z</time></trkpt><trkpt lat="37.841626" lon="12.4645046"><ele>5.857142857142858</ele><time>2026-05-01T09:00:43.7Z</time></trkpt><trkpt lat="37.8416192" lon="12.4644148"><ele>6.142857142857142</ele><time>2026-05-01T09:00:46.7Z</time></trkpt><trkpt lat="37.8416094" lon="12.4643268"><ele>6.428571428571429</ele><time>2026-05-01T09:00:49.7Z</time></trkpt><trkpt lat="37.8415987" lon="12.4642429"><ele>6.714285714285714</ele><time>2026-05-01T09:00:52.601Z</time></trkpt><trkpt lat="37.8415926" lon="12.464154"><ele>7.0</ele><time>2026-05-01T09:00:55.7Z</time></trkpt><trkpt lat="37.8415887" lon="12.4640665"><ele>7.0</ele><time>2026-05-01T09:00:58.699Z</time></trkpt><trkpt lat="37.8415811" lon="12.4639807"><ele>7.0</ele><time>2026-05-01T09:01:01.7Z</time></trkpt><trkpt lat="37.8415801" lon="12.463896"><ele>7.0</ele><time>2026-05-01T09:01:04.7Z</time></trkpt><trkpt lat="37.8415753" lon="12.4638095"><ele>7.0</ele><time>2026-05-01T09:01:07.703Z</time></trkpt><trkpt lat="37.8415745" lon="12.4637195"><ele>7.0</ele><time>2026-05-01T09:01:10.7Z</time></trkpt><trkpt lat="37.8415917" lon="12.4636391"><ele>7.0</ele><time>2026-05-01T09:01:13.7Z</time></trkpt><trkpt lat="37.8416391" lon="12.4635744"><ele>7.0</ele><time>2026-05-01T09:01:16.7Z</time></trkpt><trkpt lat="37.8417138" lon="12.4635829"><ele>6.714285714285714</ele><time>2026-05-01T09:01:19.699Z</time></trkpt><trkpt lat="37.8417767" lon="12.4636339"><ele>6.428571428571429</ele><time>2026-05-01T09:01:22.7Z</time></trkpt><trkpt lat="37.8418322" lon="12.463679"><ele>6.142857142857142</ele><time>2026-05-01T09:01:25.615Z</time></trkpt><trkpt lat="37.8418928" lon="12.4637265"><ele>5.857142857142858</ele><time>2026-05-01T09:01:28.623Z</time></trkpt><trkpt lat="37.8419667" lon="12.4637787"><ele>5.571428571428571</ele><time>2026-05-01T09:01:31.699Z</time></trkpt><trkpt lat="37.8420397" lon="12.4638109"><ele>5.285714285714286</ele><time>2026-05-01T09:01:34.699Z</time></trkpt><trkpt lat="37.8421031" lon="12.4638495"><ele>5.0</ele><time>2026-05-01T09:01:37.622Z</time></trkpt><trkpt lat="37.8421731" lon="12.4638858"><ele>4.714285714285714</ele><time>2026-05-01T09:01:40.698Z</time></trkpt><trkpt lat="37.8422333" lon="12.4639227"><ele>4.428571428571429</ele><time>2026-05-01T09:01:43.699Z</time></trkpt><trkpt lat="37.8422919" lon="12.463964"><ele>4.142857142857142</ele><time>2026-05-01T09:01:46.699Z</time></trkpt><trkpt lat="37.8423492" lon="12.4640044"><ele>3.8571428571428568</ele><time>2026-05-01T09:01:49.699Z</time></trkpt><trkpt lat="37.8424057" lon="12.4640413"><ele>3.571428571428571</ele><time>2026-05-01T09:01:52.7Z</time></trkpt><trkpt lat="37.8424641" lon="12.4640743"><ele>3.2857142857142856</ele><time>2026-05-01T09:01:55.64Z</time></trkpt><trkpt lat="37.8425202" lon="12.4641115"><ele>3.0</ele><time>2026-05-01T09:01:58.699Z</time></trkpt><trkpt lat="37.8425754" lon="12.4641531"><ele>2.8571428571428568</ele><time>2026-05-01T09:02:01.7Z</time></trkpt><trkpt lat="37.8426378" lon="12.4641883"><ele>2.7142857142857144</ele><time>2026-05-01T09:02:04.7Z</time></trkpt><trkpt lat="37.8426998" lon="12.464226"><ele>2.571428571428571</ele><time>2026-05-01T09:02:07.699Z</time></trkpt><trkpt lat="37.8427633" lon="12.4642599"><ele>2.4285714285714284</ele><time>2026-05-01T09:02:10.699Z</time></trkpt><trkpt lat="37.8428276" lon="12.4642888"><ele>2.2857142857142856</ele><time>2026-05-01T09:02:13.699Z</time></trkpt><trkpt lat="37.8428927" lon="12.4643111"><ele>2.142857142857143</ele><time>2026-05-01T09:02:16.699Z</time></trkpt><trkpt lat="37.8429597" lon="12.4643359"><ele>2.0</ele><time>2026-05-01T09:02:19.7Z</time></trkpt><trkpt lat="37.8430269" lon="12.4643602"><ele>2.0</ele><time>2026-05-01T09:02:22.7Z</time></trkpt><trkpt lat="37.8430919" lon="12.4643833"><ele>1.9999999999999998</ele><time>2026-05-01T09:02:25.61Z</time></trkpt><trkpt lat="37.843157" lon="12.4644047"><ele>2.0</ele><time>2026-05-01T09:02:28.623Z</time></trkpt><trkpt lat="37.8432177" lon="12.4644264"><ele>2.0</ele><time>2026-05-01T09:02:31.647Z</time></trkpt><trkpt lat="37.8432865" lon="12.4644493"><ele>1.9999999999999998</ele><time>2026-05-01T09:02:34.676Z</time></trkpt><trkpt lat="37.8433554" lon="12.4644766"><ele>2.0</ele><time>2026-05-01T09:02:37.683Z</time></trkpt><trkpt lat="37.8434246" lon="12.4645033"><ele>2.0</ele><time>2026-05-01T09:02:40.657Z</time></trkpt><trkpt lat="37.8434923" lon="12.4645289"><ele>1.857142857142857</ele><time>2026-05-01T09:02:43.64Z</time></trkpt><trkpt lat="37.8435577" lon="12.4645549"><ele>1.714285714285714</ele><time>2026-05-01T09:02:46.662Z</time></trkpt><trkpt lat="37.8436225" lon="12.4645757"><ele>1.5714285714285714</ele><time>2026-05-01T09:02:49.636Z</time></trkpt><trkpt lat="37.8436907" lon="12.4645913"><ele>1.4285714285714284</ele><time>2026-05-01T09:02:52.62Z</time></trkpt><trkpt lat="37.8437602" lon="12.464601"><ele>1.2857142857142856</ele><time>2026-05-01T09:02:55.616Z</time></trkpt><trkpt lat="37.8438258" lon="12.4646278"><ele>1.1428571428571428</ele><time>2026-05-01T09:02:58.6Z</time></trkpt><trkpt lat="37.8438991" lon="12.4646554"><ele>1.0</ele><time>2026-05-01T09:03:01.699Z</time></trkpt><trkpt lat="37.8439672" lon="12.4646681"><ele>1.4285714285714284</ele><time>2026-05-01T09:03:04.601Z</time></trkpt><trkpt lat="37.8440456" lon="12.4646744"><ele>1.857142857142857</ele><time>2026-05-01T09:03:07.7Z</time></trkpt><trkpt lat="37.8441129" lon="12.4646802"><ele>2.2857142857142856</ele><time>2026-05-01T09:03:10.699Z</time></trkpt><trkpt lat="37.8441779" lon="12.4646832"><ele>2.714285714285714</ele><time>2026-05-01T09:03:13.7Z</time></trkpt><trkpt lat="37.8442435" lon="12.4646862"><ele>3.1428571428571423</ele><time>2026-05-01T09:03:16.699Z</time></trkpt><trkpt lat="37.8443165" lon="12.4646772"><ele>3.571428571428571</ele><time>2026-05-01T09:03:19.7Z</time></trkpt><trkpt lat="37.8443801" lon="12.4646674"><ele>4.0</ele><time>2026-05-01T09:03:22.624Z</time></trkpt><trkpt lat="37.8444443" lon="12.4646541"><ele>4.142857142857142</ele><time>2026-05-01T09:03:25.641Z</time></trkpt><trkpt lat="37.844509" lon="12.4646443"><ele>4.285714285714286</ele><time>2026-05-01T09:03:28.64Z</time></trkpt><trkpt lat="37.8445828" lon="12.4646266"><ele>4.428571428571429</ele><time>2026-05-01T09:03:32.7Z</time></trkpt><trkpt lat="37.8446479" lon="12.4646168"><ele>4.571428571428571</ele><time>2026-05-01T09:03:35.7Z</time></trkpt><trkpt lat="37.8447209" lon="12.464621"><ele>4.714285714285714</ele><time>2026-05-01T09:03:38.643Z</time></trkpt><trkpt lat="37.8447924" lon="12.4646359"><ele>4.857142857142857</ele><time>2026-05-01T09:03:41.678Z</time></trkpt><trkpt lat="37.844865" lon="12.4646579"><ele>5.0</ele><time>2026-05-01T09:03:44.661Z</time></trkpt><trkpt lat="37.8449338" lon="12.4646712"><ele>5.0</ele><time>2026-05-01T09:03:47.699Z</time></trkpt><trkpt lat="37.8450008" lon="12.4646822"><ele>5.0</ele><time>2026-05-01T09:03:50.699Z</time></trkpt><trkpt lat="37.8450654" lon="12.4646938"><ele>5.0</ele><time>2026-05-01T09:03:53.7Z</time></trkpt><trkpt lat="37.8451345" lon="12.4647003"><ele>5.0</ele><time>2026-05-01T09:03:56.699Z</time></trkpt><trkpt lat="37.8452055" lon="12.4647021"><ele>5.0</ele><time>2026-05-01T09:03:59.7Z</time></trkpt><trkpt lat="37.8452735" lon="12.4647059"><ele>5.0</ele><time>2026-05-01T09:04:02.699Z</time></trkpt><trkpt lat="37.8453386" lon="12.4647017"><ele>5.0</ele><time>2026-05-01T09:04:05.602Z</time></trkpt><trkpt lat="37.8454094" lon="12.4646814"><ele>5.0</ele><time>2026-05-01T09:04:08.7Z</time></trkpt><trkpt lat="37.8454742" lon="12.4646799"><ele>5.0</ele><time>2026-05-01T09:04:11.621Z</time></trkpt><trkpt lat="37.8455444" lon="12.4647097"><ele>5.0</ele><time>2026-05-01T09:04:14.7Z</time></trkpt><trkpt lat="37.8456091" lon="12.4647416"><ele>5.0</ele><time>2026-05-01T09:04:17.7Z</time></trkpt><trkpt lat="37.8456754" lon="12.4647742"><ele>5.0</ele><time>2026-05-01T09:04:20.699Z</time></trkpt><trkpt lat="37.8457413" lon="12.4648034"><ele>5.0</ele><time>2026-05-01T09:04:23.699Z</time></trkpt><trkpt lat="37.845804" lon="12.4648409"><ele>5.0</ele><time>2026-05-01T09:04:26.699Z</time></trkpt><trkpt lat="37.8458717" lon="12.4648687"><ele>5.0</ele><time>2026-05-01T09:04:29.7Z</time></trkpt><trkpt lat="37.845938" lon="12.4648879"><ele>5.0</ele><time>2026-05-01T09:04:32.603Z</time></trkpt><trkpt lat="37.8460093" lon="12.4648966"><ele>5.0</ele><time>2026-05-01T09:04:35.624Z</time></trkpt><trkpt lat="37.8460777" lon="12.4648913"><ele>5.0</ele><time>2026-05-01T09:04:38.683Z</time></trkpt><trkpt lat="37.8461425" lon="12.4648882"><ele>5.0</ele><time>2026-05-01T09:04:41.7Z</time></trkpt><trkpt lat="37.84621" lon="12.4648836"><ele>5.0</ele><time>2026-05-01T09:04:44.7Z</time></trkpt><trkpt lat="37.8462742" lon="12.4648754"><ele>5.0</ele><time>2026-05-01T09:04:47.7Z</time></trkpt><trkpt lat="37.8463405" lon="12.4648649"><ele>4.857142857142857</ele><time>2026-05-01T09:04:50.698Z</time></trkpt><trkpt lat="37.8464061" lon="12.4648535"><ele>4.714285714285714</ele><time>2026-05-01T09:04:53.699Z</time></trkpt><trkpt lat="37.8464705" lon="12.464845"><ele>4.571428571428571</ele><time>2026-05-01T09:04:56.7Z</time></trkpt><trkpt lat="37.8465367" lon="12.4648314"><ele>4.428571428571429</ele><time>2026-05-01T09:04:59.699Z</time></trkpt><trkpt lat="37.8466079" lon="12.4648164"><ele>4.285714285714286</ele><time>2026-05-01T09:05:02.699Z</time></trkpt><trkpt lat="37.8466817" lon="12.4648149"><ele>4.142857142857142</ele><time>2026-05-01T09:05:05.7Z</time></trkpt><trkpt lat="37.8467508" lon="12.4648093"><ele>4.0</ele><time>2026-05-01T09:05:08.7Z</time></trkpt><trkpt lat="37.8468156" lon="12.4647994"><ele>3.8571428571428568</ele><time>2026-05-01T09:05:11.64Z</time></trkpt><trkpt lat="37.8468806" lon="12.4647948"><ele>3.714285714285714</ele><time>2026-05-01T09:05:14.68Z</time></trkpt><trkpt lat="37.8469447" lon="12.4647904"><ele>3.571428571428571</ele><time>2026-05-01T09:05:17.68Z</time></trkpt><trkpt lat="37.8470122" lon="12.4647839"><ele>3.4285714285714284</ele><time>2026-05-01T09:05:20.644Z</time></trkpt><trkpt lat="37.8470869" lon="12.4647799"><ele>3.2857142857142856</ele><time>2026-05-01T09:05:23.7Z</time></trkpt><trkpt lat="37.847151" lon="12.4647733"><ele>3.1428571428571423</ele><time>2026-05-01T09:05:26.6Z</time></trkpt><trkpt lat="37.8472186" lon="12.4647627"><ele>3.0</ele><time>2026-05-01T09:05:29.602Z</time></trkpt><trkpt lat="37.8472902" lon="12.4647528"><ele>2.9999999999999996</ele><time>2026-05-01T09:05:32.699Z</time></trkpt><trkpt lat="37.8473589" lon="12.4647474"><ele>3.0</ele><time>2026-05-01T09:05:35.7Z</time></trkpt><trkpt lat="37.8474283" lon="12.4647513"><ele>3.0</ele><time>2026-05-01T09:05:38.699Z</time></trkpt><trkpt lat="37.8474961" lon="12.464776"><ele>3.0</ele><time>2026-05-01T09:05:41.7Z</time></trkpt><trkpt lat="37.8475612" lon="12.4648245"><ele>3.0</ele><time>2026-05-01T09:05:44.7Z</time></trkpt><trkpt lat="37.8476187" lon="12.4648703"><ele>2.9999999999999996</ele><time>2026-05-01T09:05:47.698Z</time></trkpt><trkpt lat="37.8476767" lon="12.4649238"><ele>3.0</ele><time>2026-05-01T09:05:50.7Z</time></trkpt><trkpt lat="37.8477312" lon="12.464981"><ele>3.1428571428571423</ele><time>2026-05-01T09:05:53.7Z</time></trkpt><trkpt lat="37.8477823" lon="12.4650482"><ele>3.2857142857142856</ele><time>2026-05-01T09:05:56.699Z</time></trkpt><trkpt lat="37.8477852" lon="12.4651358"><ele>3.4285714285714284</ele><time>2026-05-01T09:06:00.54Z</time></trkpt><trkpt lat="37.8478373" lon="12.4652235"><ele>3.571428571428571</ele><time>2026-05-01T09:06:03.7Z</time></trkpt><trkpt lat="37.8478912" lon="12.4653043"><ele>3.714285714285714</ele><time>2026-05-01T09:06:06.7Z</time></trkpt><trkpt lat="37.8479373" lon="12.4653638"><ele>3.8571428571428568</ele><time>2026-05-01T09:06:09.7Z</time></trkpt><trkpt lat="37.8479854" lon="12.4654284"><ele>4.0</ele><time>2026-05-01T09:06:12.68Z</time></trkpt><trkpt lat="37.8480338" lon="12.4655041"><ele>4.0</ele><time>2026-05-01T09:06:15.7Z</time></trkpt><trkpt lat="37.8480864" lon="12.4655677"><ele>3.9999999999999996</ele><time>2026-05-01T09:06:18.7Z</time></trkpt><trkpt lat="37.848144" lon="12.4656169"><ele>4.0</ele><time>2026-05-01T09:06:21.7Z</time></trkpt><trkpt lat="37.8481968" lon="12.4656662"><ele>4.0</ele><time>2026-05-01T09:06:24.7Z</time></trkpt><trkpt lat="37.8482531" lon="12.4657081"><ele>3.9999999999999996</ele><time>2026-05-01T09:06:27.699Z</time></trkpt><trkpt lat="37.8483149" lon="12.4657873"><ele>4.0</ele><time>2026-05-01T09:06:31.7Z</time></trkpt><trkpt lat="37.8482693" lon="12.4658593"><ele>4.0</ele><time>2026-05-01T09:06:36.7Z</time></trkpt><trkpt lat="37.8483632" lon="12.4658831"><ele>4.0</ele><time>2026-05-01T09:06:37.699Z</time></trkpt><trkpt lat="37.8484291" lon="12.4659107"><ele>3.9999999999999996</ele><time>2026-05-01T09:06:38.7Z</time></trkpt><trkpt lat="37.8484766" lon="12.4659707"><ele>4.0</ele><time>2026-05-01T09:06:40.7Z</time></trkpt><trkpt lat="37.8485243" lon="12.4660403"><ele>4.0</ele><time>2026-05-01T09:06:43.7Z</time></trkpt><trkpt lat="37.8485745" lon="12.4661053"><ele>3.9999999999999996</ele><time>2026-05-01T09:06:46.7Z</time></trkpt><trkpt lat="37.8486083" lon="12.4661845"><ele>4.0</ele><time>2026-05-01T09:06:49.699Z</time></trkpt><trkpt lat="37.8486449" lon="12.4662575"><ele>4.0</ele><time>2026-05-01T09:06:52.7Z</time></trkpt><trkpt lat="37.8486964" lon="12.4663223"><ele>3.714285714285714</ele><time>2026-05-01T09:06:55.7Z</time></trkpt><trkpt lat="37.8487436" lon="12.4663911"><ele>3.428571428571428</ele><time>2026-05-01T09:06:58.699Z</time></trkpt><trkpt lat="37.8487846" lon="12.466461"><ele>3.142857142857143</ele><time>2026-05-01T09:07:01.7Z</time></trkpt><trkpt lat="37.848823" lon="12.4665363"><ele>2.8571428571428568</ele><time>2026-05-01T09:07:04.7Z</time></trkpt><trkpt lat="37.8488537" lon="12.4666173"><ele>2.571428571428571</ele><time>2026-05-01T09:07:07.7Z</time></trkpt><trkpt lat="37.8488752" lon="12.4667026"><ele>2.2857142857142856</ele><time>2026-05-01T09:07:10.7Z</time></trkpt><trkpt lat="37.8489049" lon="12.4667858"><ele>2.0</ele><time>2026-05-01T09:07:13.699Z</time></trkpt><trkpt lat="37.8489243" lon="12.4668723"><ele>2.0</ele><time>2026-05-01T09:07:16.7Z</time></trkpt><trkpt lat="37.8489434" lon="12.4669549"><ele>1.9999999999999998</ele><time>2026-05-01T09:07:19.699Z</time></trkpt><trkpt lat="37.848961" lon="12.46704"><ele>2.0</ele><time>2026-05-01T09:07:22.699Z</time></trkpt><trkpt lat="37.8489808" lon="12.4671241"><ele>2.0</ele><time>2026-05-01T09:07:25.7Z</time></trkpt><trkpt lat="37.8489992" lon="12.4672075"><ele>1.9999999999999998</ele><time>2026-05-01T09:07:28.7Z</time></trkpt><trkpt lat="37.8490217" lon="12.4672874"><ele>2.0</ele><time>2026-05-01T09:07:31.7Z</time></trkpt><trkpt lat="37.8490358" lon="12.4673707"><ele>2.0</ele><time>2026-05-01T09:07:34.699Z</time></trkpt><trkpt lat="37.849033" lon="12.4674583"><ele>1.9999999999999998</ele><time>2026-05-01T09:07:37.7Z</time></trkpt><trkpt lat="37.849029" lon="12.4675583"><ele>2.0</ele><time>2026-05-01T09:07:41.68Z</time></trkpt><trkpt lat="37.8490169" lon="12.4676531"><ele>2.0</ele><time>2026-05-01T09:07:46.699Z</time></trkpt><trkpt lat="37.8489801" lon="12.4677471"><ele>2.0</ele><time>2026-05-01T09:07:51.699Z</time></trkpt><trkpt lat="37.849003" lon="12.4678279"><ele>1.9999999999999998</ele><time>2026-05-01T09:07:55.7Z</time></trkpt><trkpt lat="37.8490052" lon="12.4679234"><ele>2.0</ele><time>2026-05-01T09:07:59.7Z</time></trkpt><trkpt lat="37.8489544" lon="12.4679876"><ele>2.1666666666666665</ele><time>2026-05-01T09:08:02.7Z</time></trkpt><trkpt lat="37.8489759" lon="12.4680954"><ele>2.333333333333333</ele><time>2026-05-01T09:08:05.7Z</time></trkpt><trkpt lat="37.8490172" lon="12.4681846"><ele>2.5</ele><time>2026-05-01T09:08:07.7Z</time></trkpt><trkpt lat="37.8490314" lon="12.4682623"><ele>2.6666666666666665</ele><time>2026-05-01T09:08:09.7Z</time></trkpt><trkpt lat="37.8490513" lon="12.4683408"><ele>2.8333333333333335</ele><time>2026-05-01T09:08:12.7Z</time></trkpt><trkpt lat="37.8490613" lon="12.4684468"><ele>3.0</ele><time>2026-05-01T09:08:16.7Z</time></trkpt><trkpt lat="37.8490771" lon="12.4685325"><ele>3.0</ele><time>2026-05-01T09:08:19.699Z</time></trkpt><trkpt lat="37.8490845" lon="12.4686176"><ele>3.0</ele><time>2026-05-01T09:08:22.699Z</time></trkpt><trkpt lat="37.8490922" lon="12.4687056"><ele>3.0</ele><time>2026-05-01T09:08:25.7Z</time></trkpt><trkpt lat="37.8491012" lon="12.4687944"><ele>3.0</ele><time>2026-05-01T09:08:28.699Z</time></trkpt><trkpt lat="37.8491019" lon="12.4688809"><ele>3.0</ele><time>2026-05-01T09:08:31.7Z</time></trkpt><trkpt lat="37.8491187" lon="12.4689946"><ele>3.0</ele><time>2026-05-01T09:08:35.699Z</time></trkpt><trkpt lat="37.849135" lon="12.4691009"><ele>3.1428571428571423</ele><time>2026-05-01T09:08:39.7Z</time></trkpt><trkpt lat="37.8491685" lon="12.4691727"><ele>3.2857142857142856</ele><time>2026-05-01T09:08:42.698Z</time></trkpt><trkpt lat="37.8492022" lon="12.4692468"><ele>3.4285714285714284</ele><time>2026-05-01T09:08:45.699Z</time></trkpt><trkpt lat="37.8492254" lon="12.4693388"><ele>3.571428571428571</ele><time>2026-05-01T09:08:48.698Z</time></trkpt><trkpt lat="37.8492525" lon="12.4694214"><ele>3.714285714285714</ele><time>2026-05-01T09:08:51.699Z</time></trkpt><trkpt lat="37.8492885" lon="12.4694978"><ele>3.8571428571428568</ele><time>2026-05-01T09:08:54.699Z</time></trkpt><trkpt lat="37.8493261" lon="12.4695707"><ele>4.0</ele><time>2026-05-01T09:08:57.699Z</time></trkpt><trkpt lat="37.8493641" lon="12.469644"><ele>3.4285714285714284</ele><time>2026-05-01T09:09:00.699Z</time></trkpt><trkpt lat="37.8494035" lon="12.4697162"><ele>2.8571428571428568</ele><time>2026-05-01T09:09:03.699Z</time></trkpt><trkpt lat="37.8494485" lon="12.4697862"><ele>2.2857142857142856</ele><time>2026-05-01T09:09:06.699Z</time></trkpt><trkpt lat="37.8495056" lon="12.4698423"><ele>1.7142857142857142</ele><time>2026-05-01T09:09:09.699Z</time></trkpt><trkpt lat="37.8495612" lon="12.469899"><ele>1.1428571428571428</ele><time>2026-05-01T09:09:12.699Z</time></trkpt><trkpt lat="37.8496155" lon="12.4699587"><ele>0.5714285714285714</ele><time>2026-05-01T09:09:15.699Z</time></trkpt><trkpt lat="37.8496682" lon="12.4700267"><ele>0.0</ele><time>2026-05-01T09:09:18.605Z</time></trkpt><trkpt lat="37.8497115" lon="12.4700878"><ele>0.0</ele><time>2026-05-01T09:09:21.699Z</time></trkpt><trkpt lat="37.8497508" lon="12.4701531"><ele>0.0</ele><time>2026-05-01T09:09:24.601Z</time></trkpt><trkpt lat="37.8497678" lon="12.4702433"><ele>0.0</ele><time>2026-05-01T09:09:27.699Z</time></trkpt><trkpt lat="37.8497611" lon="12.4703374"><ele>0.0</ele><time>2026-05-01T09:09:30.698Z</time></trkpt><trkpt lat="37.8497409" lon="12.4704273"><ele>0.0</ele><time>2026-05-01T09:09:33.699Z</time></trkpt><trkpt lat="37.8497212" lon="12.4705143"><ele>0.0</ele><time>2026-05-01T09:09:36.699Z</time></trkpt><trkpt lat="37.8496978" lon="12.4705956"><ele>0.0</ele><time>2026-05-01T09:09:39.685Z</time></trkpt><trkpt lat="37.8496697" lon="12.4706728"><ele>0.2857142857142857</ele><time>2026-05-01T09:09:42.642Z</time></trkpt><trkpt lat="37.8496387" lon="12.4707537"><ele>0.5714285714285714</ele><time>2026-05-01T09:09:45.699Z</time></trkpt><trkpt lat="37.8496146" lon="12.4708276"><ele>0.8571428571428571</ele><time>2026-05-01T09:09:48.468Z</time></trkpt><trkpt lat="37.8495945" lon="12.4709103"><ele>1.1428571428571428</ele><time>2026-05-01T09:09:51.699Z</time></trkpt><trkpt lat="37.8495772" lon="12.4710176"><ele>1.4285714285714284</ele><time>2026-05-01T09:09:55.699Z</time></trkpt><trkpt lat="37.8495696" lon="12.4711031"><ele>1.7142857142857142</ele><time>2026-05-01T09:09:58.699Z</time></trkpt><trkpt lat="37.84958" lon="12.4712065"><ele>2.0</ele><time>2026-05-01T09:10:02.622Z</time></trkpt><trkpt lat="37.8496055" lon="12.4712852"><ele>2.2857142857142856</ele><time>2026-05-01T09:10:05.664Z</time></trkpt><trkpt lat="37.8496378" lon="12.4713617"><ele>2.571428571428571</ele><time>2026-05-01T09:10:08.705Z</time></trkpt><trkpt lat="37.8496709" lon="12.4714485"><ele>2.8571428571428568</ele><time>2026-05-01T09:10:11.698Z</time></trkpt><trkpt lat="37.8496996" lon="12.4715263"><ele>3.142857142857143</ele><time>2026-05-01T09:10:14.698Z</time></trkpt><trkpt lat="37.8497316" lon="12.4716027"><ele>3.428571428571428</ele><time>2026-05-01T09:10:17.699Z</time></trkpt><trkpt lat="37.849761" lon="12.4716848"><ele>3.714285714285714</ele><time>2026-05-01T09:10:20.602Z</time></trkpt><trkpt lat="37.8497764" lon="12.4717801"><ele>4.0</ele><time>2026-05-01T09:10:23.699Z</time></trkpt><trkpt lat="37.8497806" lon="12.4718644"><ele>4.0</ele><time>2026-05-01T09:10:26.668Z</time></trkpt><trkpt lat="37.8497741" lon="12.4719463"><ele>3.9999999999999996</ele><time>2026-05-01T09:10:29.699Z</time></trkpt><trkpt lat="37.8497687" lon="12.4720312"><ele>4.0</ele><time>2026-05-01T09:10:32.698Z</time></trkpt><trkpt lat="37.849766" lon="12.4721185"><ele>4.0</ele><time>2026-05-01T09:10:35.699Z</time></trkpt><trkpt lat="37.8497662" lon="12.4722104"><ele>3.9999999999999996</ele><time>2026-05-01T09:10:38.699Z</time></trkpt><trkpt lat="37.8497729" lon="12.4723012"><ele>4.0</ele><time>2026-05-01T09:10:41.698Z</time></trkpt><trkpt lat="37.8497806" lon="12.4723855"><ele>4.0</ele><time>2026-05-01T09:10:44.698Z</time></trkpt><trkpt lat="37.8498032" lon="12.4724662"><ele>4.285714285714286</ele><time>2026-05-01T09:10:47.698Z</time></trkpt><trkpt lat="37.849842" lon="12.4725384"><ele>4.571428571428571</ele><time>2026-05-01T09:10:50.699Z</time></trkpt><trkpt lat="37.8498849" lon="12.4726126"><ele>4.857142857142857</ele><time>2026-05-01T09:10:53.699Z</time></trkpt><trkpt lat="37.8499273" lon="12.4726793"><ele>5.142857142857142</ele><time>2026-05-01T09:10:56.699Z</time></trkpt><trkpt lat="37.8499797" lon="12.4727462"><ele>5.428571428571429</ele><time>2026-05-01T09:10:59.699Z</time></trkpt><trkpt lat="37.8500298" lon="12.472807"><ele>5.7142857142857135</ele><time>2026-05-01T09:11:02.623Z</time></trkpt><trkpt lat="37.8500886" lon="12.4728733"><ele>6.0</ele><time>2026-05-01T09:11:05.698Z</time></trkpt><trkpt lat="37.8501396" lon="12.4729359"><ele>5.285714285714286</ele><time>2026-05-01T09:11:08.698Z</time></trkpt><trkpt lat="37.850193" lon="12.4729996"><ele>4.571428571428571</ele><time>2026-05-01T09:11:11.698Z</time></trkpt><trkpt lat="37.8502458" lon="12.4730597"><ele>3.8571428571428568</ele><time>2026-05-01T09:11:14.666Z</time></trkpt><trkpt lat="37.8503082" lon="12.4731161"><ele>3.1428571428571423</ele><time>2026-05-01T09:11:17.698Z</time></trkpt><trkpt lat="37.8503702" lon="12.4731724"><ele>2.4285714285714284</ele><time>2026-05-01T09:11:20.698Z</time></trkpt><trkpt lat="37.8504282" lon="12.4732288"><ele>1.7142857142857142</ele><time>2026-05-01T09:11:23.699Z</time></trkpt><trkpt lat="37.8504885" lon="12.4732769"><ele>1.0</ele><time>2026-05-01T09:11:26.698Z</time></trkpt><trkpt lat="37.8505489" lon="12.4733219"><ele>1.0</ele><time>2026-05-01T09:11:29.698Z</time></trkpt><trkpt lat="37.8506078" lon="12.4733639"><ele>0.9999999999999999</ele><time>2026-05-01T09:11:32.697Z</time></trkpt><trkpt lat="37.850671" lon="12.4734098"><ele>1.0</ele><time>2026-05-01T09:11:35.699Z</time></trkpt><trkpt lat="37.8507291" lon="12.4734581"><ele>1.0</ele><time>2026-05-01T09:11:38.601Z</time></trkpt><trkpt lat="37.8507861" lon="12.4735103"><ele>0.9999999999999999</ele><time>2026-05-01T09:11:41.642Z</time></trkpt><trkpt lat="37.850844" lon="12.4735642"><ele>1.0</ele><time>2026-05-01T09:11:44.657Z</time></trkpt><trkpt lat="37.8509037" lon="12.4736198"><ele>1.0</ele><time>2026-05-01T09:11:47.703Z</time></trkpt><trkpt lat="37.8509625" lon="12.4736788"><ele>0.8333333333333333</ele><time>2026-05-01T09:11:50.703Z</time></trkpt><trkpt lat="37.8510369" lon="12.4737438"><ele>0.6666666666666666</ele><time>2026-05-01T09:11:53.699Z</time></trkpt><trkpt lat="37.8510998" lon="12.4737939"><ele>0.5</ele><time>2026-05-01T09:11:56.698Z</time></trkpt><trkpt lat="37.8511574" lon="12.4738499"><ele>0.3333333333333333</ele><time>2026-05-01T09:11:59.699Z</time></trkpt><trkpt lat="37.8512123" lon="12.473914"><ele>0.16666666666666666</ele><time>2026-05-01T09:12:02.698Z</time></trkpt><trkpt lat="37.8512656" lon="12.4739799"><ele>0.0</ele><time>2026-05-01T09:12:05.698Z</time></trkpt><trkpt lat="37.851319" lon="12.4740409"><ele>0.42857142857142855</ele><time>2026-05-01T09:12:08.699Z</time></trkpt><trkpt lat="37.8513825" lon="12.4741168"><ele>0.8571428571428571</ele><time>2026-05-01T09:12:11.698Z</time></trkpt><trkpt lat="37.8514311" lon="12.4741747"><ele>1.2857142857142856</ele><time>2026-05-01T09:12:14.699Z</time></trkpt><trkpt lat="37.8514887" lon="12.4742324"><ele>1.7142857142857142</ele><time>2026-05-01T09:12:17.699Z</time></trkpt><trkpt lat="37.8515488" lon="12.474288"><ele>2.142857142857143</ele><time>2026-05-01T09:12:20.699Z</time></trkpt><trkpt lat="37.8516155" lon="12.4743395"><ele>2.571428571428571</ele><time>2026-05-01T09:12:23.698Z</time></trkpt><trkpt lat="37.8516748" lon="12.4743818"><ele>3.0</ele><time>2026-05-01T09:12:26.682Z</time></trkpt><trkpt lat="37.8517359" lon="12.4744298"><ele>2.9999999999999996</ele><time>2026-05-01T09:12:29.698Z</time></trkpt><trkpt lat="37.8517971" lon="12.4744744"><ele>3.0</ele><time>2026-05-01T09:12:32.699Z</time></trkpt><trkpt lat="37.8518589" lon="12.4745224"><ele>3.0</ele><time>2026-05-01T09:12:35.698Z</time></trkpt><trkpt lat="37.8519217" lon="12.4745724"><ele>3.0</ele><time>2026-05-01T09:12:38.698Z</time></trkpt><trkpt lat="37.8519804" lon="12.4746294"><ele>3.0</ele><time>2026-05-01T09:12:41.699Z</time></trkpt><trkpt lat="37.8520389" lon="12.4746868"><ele>2.9999999999999996</ele><time>2026-05-01T09:12:44.699Z</time></trkpt><trkpt lat="37.8521021" lon="12.4747443"><ele>3.0</ele><time>2026-05-01T09:12:47.698Z</time></trkpt><trkpt lat="37.8521614" lon="12.4747987"><ele>2.9999999999999996</ele><time>2026-05-01T09:12:50.669Z</time></trkpt><trkpt lat="37.8522241" lon="12.474854"><ele>3.0</ele><time>2026-05-01T09:12:53.641Z</time></trkpt><trkpt lat="37.8522856" lon="12.4749087"><ele>3.0</ele><time>2026-05-01T09:12:56.606Z</time></trkpt><trkpt lat="37.8523489" lon="12.4749623"><ele>3.0</ele><time>2026-05-01T09:12:59.605Z</time></trkpt><trkpt lat="37.8524105" lon="12.475015"><ele>3.0</ele><time>2026-05-01T09:13:02.698Z</time></trkpt><trkpt lat="37.8524754" lon="12.4750556"><ele>2.9999999999999996</ele><time>2026-05-01T09:13:05.698Z</time></trkpt><trkpt lat="37.8525431" lon="12.4750949"><ele>3.0</ele><time>2026-05-01T09:13:08.698Z</time></trkpt><trkpt lat="37.852608" lon="12.4751319"><ele>2.714285714285714</ele><time>2026-05-01T09:13:11.699Z</time></trkpt><trkpt lat="37.8526749" lon="12.4751711"><ele>2.4285714285714284</ele><time>2026-05-01T09:13:14.699Z</time></trkpt><trkpt lat="37.8527356" lon="12.4752153"><ele>2.142857142857143</ele><time>2026-05-01T09:13:17.698Z</time></trkpt><trkpt lat="37.8527952" lon="12.4752568"><ele>1.857142857142857</ele><time>2026-05-01T09:13:20.699Z</time></trkpt><trkpt lat="37.8528583" lon="12.4753015"><ele>1.5714285714285712</ele><time>2026-05-01T09:13:23.699Z</time></trkpt><trkpt lat="37.8529203" lon="12.4753435"><ele>1.2857142857142856</ele><time>2026-05-01T09:13:26.699Z</time></trkpt><trkpt lat="37.8529787" lon="12.4753923"><ele>1.0</ele><time>2026-05-01T09:13:29.699Z</time></trkpt><trkpt lat="37.8530332" lon="12.4754508"><ele>1.7142857142857142</ele><time>2026-05-01T09:13:32.699Z</time></trkpt><trkpt lat="37.8530923" lon="12.4755131"><ele>2.4285714285714284</ele><time>2026-05-01T09:13:35.699Z</time></trkpt><trkpt lat="37.8531459" lon="12.4755783"><ele>3.1428571428571423</ele><time>2026-05-01T09:13:38.698Z</time></trkpt><trkpt lat="37.8531943" lon="12.4756457"><ele>3.8571428571428568</ele><time>2026-05-01T09:13:41.699Z</time></trkpt><trkpt lat="37.8532456" lon="12.47571"><ele>4.571428571428571</ele><time>2026-05-01T09:13:44.699Z</time></trkpt><trkpt lat="37.8532955" lon="12.475772"><ele>5.285714285714286</ele><time>2026-05-01T09:13:47.699Z</time></trkpt><trkpt lat="37.8533492" lon="12.4758291"><ele>6.0</ele><time>2026-05-01T09:13:50.698Z</time></trkpt><trkpt lat="37.8534114" lon="12.4758792"><ele>5.142857142857142</ele><time>2026-05-01T09:13:53.698Z</time></trkpt><trkpt lat="37.8534745" lon="12.4759274"><ele>4.285714285714286</ele><time>2026-05-01T09:13:56.698Z</time></trkpt><trkpt lat="37.8535294" lon="12.4759732"><ele>3.4285714285714284</ele><time>2026-05-01T09:13:59.698Z</time></trkpt><trkpt lat="37.8535937" lon="12.4760063"><ele>2.571428571428571</ele><time>2026-05-01T09:14:02.698Z</time></trkpt><trkpt lat="37.8536628" lon="12.476026"><ele>1.7142857142857142</ele><time>2026-05-01T09:14:05.699Z</time></trkpt><trkpt lat="37.8537307" lon="12.4760472"><ele>0.8571428571428571</ele><time>2026-05-01T09:14:08.661Z</time></trkpt><trkpt lat="37.8538114" lon="12.4760825"><ele>0.0</ele><time>2026-05-01T09:14:12.699Z</time></trkpt><trkpt lat="37.853877" lon="12.4761143"><ele>0.0</ele><time>2026-05-01T09:14:15.698Z</time></trkpt><trkpt lat="37.8539439" lon="12.476152"><ele>0.0</ele><time>2026-05-01T09:14:18.698Z</time></trkpt><trkpt lat="37.8540073" lon="12.4761772"><ele>0.0</ele><time>2026-05-01T09:14:21.699Z</time></trkpt><trkpt lat="37.8540709" lon="12.4762037"><ele>0.0</ele><time>2026-05-01T09:14:24.698Z</time></trkpt><trkpt lat="37.8541348" lon="12.4762363"><ele>0.0</ele><time>2026-05-01T09:14:27.698Z</time></trkpt><trkpt lat="37.8542009" lon="12.4762627"><ele>0.0</ele><time>2026-05-01T09:14:30.698Z</time></trkpt><trkpt lat="37.8542683" lon="12.4762874"><ele>0.0</ele><time>2026-05-01T09:14:33.699Z</time></trkpt><trkpt lat="37.8543343" lon="12.4763153"><ele>0.2857142857142857</ele><time>2026-05-01T09:14:36.699Z</time></trkpt><trkpt lat="37.8543991" lon="12.4763453"><ele>0.5714285714285714</ele><time>2026-05-01T09:14:39.699Z</time></trkpt><trkpt lat="37.8544628" lon="12.4763764"><ele>0.8571428571428571</ele><time>2026-05-01T09:14:42.699Z</time></trkpt><trkpt lat="37.8545304" lon="12.4764052"><ele>1.1428571428571428</ele><time>2026-05-01T09:14:45.698Z</time></trkpt><trkpt lat="37.8546005" lon="12.4764322"><ele>1.4285714285714284</ele><time>2026-05-01T09:14:48.699Z</time></trkpt><trkpt lat="37.8546683" lon="12.4764614"><ele>1.7142857142857142</ele><time>2026-05-01T09:14:51.699Z</time></trkpt><trkpt lat="37.8547394" lon="12.4764881"><ele>2.0</ele><time>2026-05-01T09:14:54.699Z</time></trkpt><trkpt lat="37.8548086" lon="12.476509"><ele>2.0</ele><time>2026-05-01T09:14:57.698Z</time></trkpt><trkpt lat="37.8548783" lon="12.4765238"><ele>1.9999999999999998</ele><time>2026-05-01T09:15:00.698Z</time></trkpt><trkpt lat="37.8549521" lon="12.4765431"><ele>2.0</ele><time>2026-05-01T09:15:03.699Z</time></trkpt><trkpt lat="37.8550144" lon="12.4765639"><ele>2.0</ele><time>2026-05-01T09:15:06.698Z</time></trkpt><trkpt lat="37.8550815" lon="12.4765938"><ele>1.9999999999999998</ele><time>2026-05-01T09:15:09.698Z</time></trkpt><trkpt lat="37.8551466" lon="12.4766265"><ele>2.0</ele><time>2026-05-01T09:15:12.698Z</time></trkpt><trkpt lat="37.8552183" lon="12.4766605"><ele>2.0</ele><time>2026-05-01T09:15:15.699Z</time></trkpt><trkpt lat="37.8552787" lon="12.4766993"><ele>1.6666666666666665</ele><time>2026-05-01T09:15:18.698Z</time></trkpt><trkpt lat="37.8553473" lon="12.4767679"><ele>1.3333333333333333</ele><time>2026-05-01T09:15:22.698Z</time></trkpt><trkpt lat="37.8553998" lon="12.4768237"><ele>1.0</ele><time>2026-05-01T09:15:25.683Z</time></trkpt><trkpt lat="37.8554543" lon="12.4768819"><ele>0.6666666666666666</ele><time>2026-05-01T09:15:28.685Z</time></trkpt><trkpt lat="37.8555052" lon="12.4769506"><ele>0.3333333333333333</ele><time>2026-05-01T09:15:31.698Z</time></trkpt><trkpt lat="37.8555526" lon="12.4770034"><ele>0.0</ele><time>2026-05-01T09:15:34.337Z</time></trkpt><trkpt lat="37.8556244" lon="12.4770648"><ele>0.14285714285714285</ele><time>2026-05-01T09:15:37.646Z</time></trkpt><trkpt lat="37.8556829" lon="12.4771228"><ele>0.2857142857142857</ele><time>2026-05-01T09:15:40.698Z</time></trkpt><trkpt lat="37.855726" lon="12.4771864"><ele>0.42857142857142855</ele><time>2026-05-01T09:15:43.698Z</time></trkpt><trkpt lat="37.8557896" lon="12.4772128"><ele>0.5714285714285714</ele><time>2026-05-01T09:15:46.699Z</time></trkpt><trkpt lat="37.8558496" lon="12.4772629"><ele>0.7142857142857142</ele><time>2026-05-01T09:15:49.699Z</time></trkpt><trkpt lat="37.855907" lon="12.4773235"><ele>0.8571428571428571</ele><time>2026-05-01T09:15:52.699Z</time></trkpt><trkpt lat="37.8559765" lon="12.4773764"><ele>1.0</ele><time>2026-05-01T09:15:55.699Z</time></trkpt><trkpt lat="37.856017" lon="12.4774432"><ele>0.9999999999999999</ele><time>2026-05-01T09:16:13.697Z</time></trkpt><trkpt lat="37.8560759" lon="12.477496"><ele>1.0</ele><time>2026-05-01T09:16:16.699Z</time></trkpt><trkpt lat="37.8561599" lon="12.477532"><ele>1.0</ele><time>2026-05-01T09:16:19.698Z</time></trkpt><trkpt lat="37.8562345" lon="12.4775808"><ele>1.0</ele><time>2026-05-01T09:16:22.698Z</time></trkpt><trkpt lat="37.856303" lon="12.477615"><ele>0.9999999999999999</ele><time>2026-05-01T09:16:25.699Z</time></trkpt><trkpt lat="37.856374" lon="12.4776403"><ele>1.0</ele><time>2026-05-01T09:16:28.699Z</time></trkpt><trkpt lat="37.8564418" lon="12.4776711"><ele>1.0</ele><time>2026-05-01T09:16:31.699Z</time></trkpt><trkpt lat="37.8565033" lon="12.4777222"><ele>0.9999999999999999</ele><time>2026-05-01T09:16:34.698Z</time></trkpt><trkpt lat="37.8565363" lon="12.4778076"><ele>1.0</ele><time>2026-05-01T09:16:37.699Z</time></trkpt><trkpt lat="37.8565713" lon="12.4778884"><ele>1.0</ele><time>2026-05-01T09:16:40.699Z</time></trkpt><trkpt lat="37.8566102" lon="12.4779716"><ele>0.9999999999999999</ele><time>2026-05-01T09:16:43.698Z</time></trkpt><trkpt lat="37.8566399" lon="12.478059"><ele>1.0</ele><time>2026-05-01T09:16:46.699Z</time></trkpt><trkpt lat="37.856647" lon="12.4781521"><ele>1.0</ele><time>2026-05-01T09:16:49.699Z</time></trkpt><trkpt lat="37.8566372" lon="12.4782419"><ele>1.2857142857142856</ele><time>2026-05-01T09:16:52.698Z</time></trkpt><trkpt lat="37.8566239" lon="12.4783266"><ele>1.5714285714285712</ele><time>2026-05-01T09:16:55.699Z</time></trkpt><trkpt lat="37.8566148" lon="12.4784146"><ele>1.857142857142857</ele><time>2026-05-01T09:16:58.699Z</time></trkpt><trkpt lat="37.8566183" lon="12.4785156"><ele>2.142857142857143</ele><time>2026-05-01T09:17:01.698Z</time></trkpt><trkpt lat="37.8566273" lon="12.4786183"><ele>2.4285714285714284</ele><time>2026-05-01T09:17:05.626Z</time></trkpt><trkpt lat="37.8566434" lon="12.4787076"><ele>2.714285714285714</ele><time>2026-05-01T09:17:08.654Z</time></trkpt><trkpt lat="37.856679" lon="12.4787865"><ele>3.0</ele><time>2026-05-01T09:17:11.696Z</time></trkpt><trkpt lat="37.8567188" lon="12.4788626"><ele>3.1428571428571423</ele><time>2026-05-01T09:17:14.712Z</time></trkpt><trkpt lat="37.8567464" lon="12.4789478"><ele>3.2857142857142856</ele><time>2026-05-01T09:17:17.698Z</time></trkpt><trkpt lat="37.8567708" lon="12.4790284"><ele>3.4285714285714284</ele><time>2026-05-01T09:17:20.697Z</time></trkpt><trkpt lat="37.856785" lon="12.4791101"><ele>3.571428571428571</ele><time>2026-05-01T09:17:23.699Z</time></trkpt><trkpt lat="37.8567898" lon="12.4791993"><ele>3.714285714285714</ele><time>2026-05-01T09:17:26.698Z</time></trkpt><trkpt lat="37.856788" lon="12.4792888"><ele>3.8571428571428568</ele><time>2026-05-01T09:17:29.698Z</time></trkpt><trkpt lat="37.8567818" lon="12.4793765"><ele>4.0</ele><time>2026-05-01T09:17:32.699Z</time></trkpt><trkpt lat="37.8567727" lon="12.4794978"><ele>3.9999999999999996</ele><time>2026-05-01T09:17:48.699Z</time></trkpt><trkpt lat="37.8567546" lon="12.4796"><ele>4.0</ele><time>2026-05-01T09:17:51.698Z</time></trkpt><trkpt lat="37.8567514" lon="12.4797078"><ele>4.0</ele><time>2026-05-01T09:17:54.699Z</time></trkpt><trkpt lat="37.8567641" lon="12.4798082"><ele>4.0</ele><time>2026-05-01T09:17:57.704Z</time></trkpt><trkpt lat="37.8567845" lon="12.4799094"><ele>3.9999999999999996</ele><time>2026-05-01T09:18:00.66Z</time></trkpt><trkpt lat="37.8568093" lon="12.4799981"><ele>4.0</ele><time>2026-05-01T09:18:03.698Z</time></trkpt><trkpt lat="37.8568446" lon="12.4800866"><ele>3.714285714285714</ele><time>2026-05-01T09:18:06.698Z</time></trkpt><trkpt lat="37.8568739" lon="12.4801734"><ele>3.428571428571428</ele><time>2026-05-01T09:18:09.67Z</time></trkpt><trkpt lat="37.8569016" lon="12.4802583"><ele>3.142857142857143</ele><time>2026-05-01T09:18:12.712Z</time></trkpt><trkpt lat="37.8569245" lon="12.4803391"><ele>2.8571428571428568</ele><time>2026-05-01T09:18:15.698Z</time></trkpt><trkpt lat="37.8569363" lon="12.4804261"><ele>2.571428571428571</ele><time>2026-05-01T09:18:18.698Z</time></trkpt><trkpt lat="37.8569484" lon="12.4805138"><ele>2.2857142857142856</ele><time>2026-05-01T09:18:21.697Z</time></trkpt><trkpt lat="37.8569603" lon="12.4806011"><ele>2.0</ele><time>2026-05-01T09:18:24.697Z</time></trkpt><trkpt lat="37.8569765" lon="12.4806868"><ele>2.0</ele><time>2026-05-01T09:18:27.698Z</time></trkpt><trkpt lat="37.8569966" lon="12.4807673"><ele>1.9999999999999998</ele><time>2026-05-01T09:18:30.698Z</time></trkpt><trkpt lat="37.8570067" lon="12.4808512"><ele>2.0</ele><time>2026-05-01T09:18:33.698Z</time></trkpt><trkpt lat="37.8570145" lon="12.4809411"><ele>2.0</ele><time>2026-05-01T09:18:36.698Z</time></trkpt><trkpt lat="37.8570129" lon="12.4810328"><ele>1.9999999999999998</ele><time>2026-05-01T09:18:39.698Z</time></trkpt><trkpt lat="37.8570159" lon="12.4811244"><ele>2.0</ele><time>2026-05-01T09:18:42.698Z</time></trkpt><trkpt lat="37.8570102" lon="12.4812111"><ele>2.0</ele><time>2026-05-01T09:18:45.697Z</time></trkpt><trkpt lat="37.8570021" lon="12.4812941"><ele>2.0</ele><time>2026-05-01T09:18:48.698Z</time></trkpt><trkpt lat="37.8569999" lon="12.4813796"><ele>1.9999999999999998</ele><time>2026-05-01T09:18:51.698Z</time></trkpt><trkpt lat="37.8570015" lon="12.4814721"><ele>2.0</ele><time>2026-05-01T09:18:54.696Z</time></trkpt><trkpt lat="37.8570042" lon="12.4815656"><ele>2.0</ele><time>2026-05-01T09:18:57.698Z</time></trkpt><trkpt lat="37.8570124" lon="12.4816621"><ele>1.9999999999999998</ele><time>2026-05-01T09:19:00.698Z</time></trkpt><trkpt lat="37.8570237" lon="12.4817524"><ele>2.0</ele><time>2026-05-01T09:19:03.698Z</time></trkpt><trkpt lat="37.8570376" lon="12.4818446"><ele>2.0</ele><time>2026-05-01T09:19:06.698Z</time></trkpt><trkpt lat="37.8570574" lon="12.4819614"><ele>1.9999999999999998</ele><time>2026-05-01T09:19:10.581Z</time></trkpt><trkpt lat="37.8570705" lon="12.4820532"><ele>2.0</ele><time>2026-05-01T09:19:13.607Z</time></trkpt><trkpt lat="37.8570837" lon="12.4821569"><ele>2.0</ele><time>2026-05-01T09:19:16.605Z</time></trkpt><trkpt lat="37.8570944" lon="12.4822515"><ele>2.0</ele><time>2026-05-01T09:19:19.698Z</time></trkpt><trkpt lat="37.8571066" lon="12.4823453"><ele>1.9999999999999998</ele><time>2026-05-01T09:19:22.696Z</time></trkpt><trkpt lat="37.8571221" lon="12.4824362"><ele>2.0</ele><time>2026-05-01T09:19:25.698Z</time></trkpt><trkpt lat="37.8571428" lon="12.4825297"><ele>1.857142857142857</ele><time>2026-05-01T09:19:28.698Z</time></trkpt><trkpt lat="37.8571712" lon="12.4826159"><ele>1.714285714285714</ele><time>2026-05-01T09:19:31.697Z</time></trkpt><trkpt lat="37.8571986" lon="12.4827046"><ele>1.5714285714285714</ele><time>2026-05-01T09:19:34.698Z</time></trkpt><trkpt lat="37.8572244" lon="12.482791"><ele>1.4285714285714284</ele><time>2026-05-01T09:19:37.698Z</time></trkpt><trkpt lat="37.8572499" lon="12.4828745"><ele>1.2857142857142856</ele><time>2026-05-01T09:19:40.697Z</time></trkpt><trkpt lat="37.8572769" lon="12.4829577"><ele>1.1428571428571428</ele><time>2026-05-01T09:19:43.697Z</time></trkpt><trkpt lat="37.8573008" lon="12.4830388"><ele>1.0</ele><time>2026-05-01T09:19:46.698Z</time></trkpt><trkpt lat="37.8573338" lon="12.4831145"><ele>1.2857142857142856</ele><time>2026-05-01T09:19:49.697Z</time></trkpt><trkpt lat="37.857362" lon="12.4831924"><ele>1.5714285714285712</ele><time>2026-05-01T09:19:52.698Z</time></trkpt><trkpt lat="37.8573959" lon="12.4832694"><ele>1.857142857142857</ele><time>2026-05-01T09:19:55.698Z</time></trkpt><trkpt lat="37.8574221" lon="12.4833483"><ele>2.142857142857143</ele><time>2026-05-01T09:19:58.698Z</time></trkpt><trkpt lat="37.857448" lon="12.4834299"><ele>2.4285714285714284</ele><time>2026-05-01T09:20:01.698Z</time></trkpt><trkpt lat="37.8574775" lon="12.4835156"><ele>2.714285714285714</ele><time>2026-05-01T09:20:04.698Z</time></trkpt><trkpt lat="37.8575089" lon="12.4835977"><ele>3.0</ele><time>2026-05-01T09:20:07.704Z</time></trkpt><trkpt lat="37.8575349" lon="12.4836809"><ele>3.1428571428571423</ele><time>2026-05-01T09:20:11.698Z</time></trkpt><trkpt lat="37.857562" lon="12.4837798"><ele>3.2857142857142856</ele><time>2026-05-01T09:20:15.698Z</time></trkpt><trkpt lat="37.8575925" lon="12.4838709"><ele>3.4285714285714284</ele><time>2026-05-01T09:20:18.698Z</time></trkpt><trkpt lat="37.857629" lon="12.4839463"><ele>3.571428571428571</ele><time>2026-05-01T09:20:21.697Z</time></trkpt><trkpt lat="37.8576801" lon="12.4840142"><ele>3.714285714285714</ele><time>2026-05-01T09:20:24.698Z</time></trkpt><trkpt lat="37.8577355" lon="12.4840774"><ele>3.8571428571428568</ele><time>2026-05-01T09:20:27.698Z</time></trkpt><trkpt lat="37.8577867" lon="12.484138"><ele>4.0</ele><time>2026-05-01T09:20:30.698Z</time></trkpt><trkpt lat="37.8578359" lon="12.4841937"><ele>3.571428571428571</ele><time>2026-05-01T09:20:33.611Z</time></trkpt><trkpt lat="37.8578915" lon="12.4842473"><ele>3.1428571428571423</ele><time>2026-05-01T09:20:36.686Z</time></trkpt><trkpt lat="37.8579528" lon="12.4842937"><ele>2.714285714285714</ele><time>2026-05-01T09:20:39.697Z</time></trkpt><trkpt lat="37.8580125" lon="12.4843374"><ele>2.2857142857142856</ele><time>2026-05-01T09:20:42.697Z</time></trkpt><trkpt lat="37.8580731" lon="12.4843769"><ele>1.857142857142857</ele><time>2026-05-01T09:20:45.698Z</time></trkpt><trkpt lat="37.8581334" lon="12.4844213"><ele>1.4285714285714284</ele><time>2026-05-01T09:20:48.697Z</time></trkpt><trkpt lat="37.8581936" lon="12.484468"><ele>1.0</ele><time>2026-05-01T09:20:51.698Z</time></trkpt><trkpt lat="37.8582557" lon="12.4845109"><ele>1.0</ele><time>2026-05-01T09:20:54.697Z</time></trkpt><trkpt lat="37.8583186" lon="12.4845495"><ele>0.9999999999999999</ele><time>2026-05-01T09:20:57.698Z</time></trkpt><trkpt lat="37.8583839" lon="12.484581"><ele>1.0</ele><time>2026-05-01T09:21:00.698Z</time></trkpt><trkpt lat="37.8584515" lon="12.4846066"><ele>1.0</ele><time>2026-05-01T09:21:03.698Z</time></trkpt><trkpt lat="37.8585261" lon="12.4846383"><ele>0.9999999999999999</ele><time>2026-05-01T09:21:06.697Z</time></trkpt><trkpt lat="37.8585891" lon="12.4846612"><ele>1.0</ele><time>2026-05-01T09:21:09.698Z</time></trkpt><trkpt lat="37.8586571" lon="12.4846831"><ele>1.0</ele><time>2026-05-01T09:21:12.698Z</time></trkpt><trkpt lat="37.858723" lon="12.4846976"><ele>1.2857142857142856</ele><time>2026-05-01T09:21:15.698Z</time></trkpt><trkpt lat="37.8587911" lon="12.4847085"><ele>1.5714285714285712</ele><time>2026-05-01T09:21:18.697Z</time></trkpt><trkpt lat="37.8588606" lon="12.4847248"><ele>1.857142857142857</ele><time>2026-05-01T09:21:21.697Z</time></trkpt><trkpt lat="37.858936" lon="12.4847385"><ele>2.142857142857143</ele><time>2026-05-01T09:21:24.696Z</time></trkpt><trkpt lat="37.8589848" lon="12.4847902"><ele>2.4285714285714284</ele><time>2026-05-01T09:21:46.697Z</time></trkpt><trkpt lat="37.8590589" lon="12.484809"><ele>2.714285714285714</ele><time>2026-05-01T09:21:49.698Z</time></trkpt><trkpt lat="37.85913" lon="12.4848099"><ele>3.0</ele><time>2026-05-01T09:21:52.697Z</time></trkpt><trkpt lat="37.8592026" lon="12.4848253"><ele>2.9999999999999996</ele><time>2026-05-01T09:21:55.698Z</time></trkpt><trkpt lat="37.8592698" lon="12.4848839"><ele>3.0</ele><time>2026-05-01T09:21:58.698Z</time></trkpt><trkpt lat="37.8593467" lon="12.4848987"><ele>3.0</ele><time>2026-05-01T09:22:01.605Z</time></trkpt><trkpt lat="37.8594251" lon="12.484901"><ele>3.0</ele><time>2026-05-01T09:22:04.698Z</time></trkpt><trkpt lat="37.8594898" lon="12.4849154"><ele>3.0</ele><time>2026-05-01T09:22:07.698Z</time></trkpt><trkpt lat="37.8595569" lon="12.4849058"><ele>2.9999999999999996</ele><time>2026-05-01T09:22:10.698Z</time></trkpt><trkpt lat="37.8596171" lon="12.4849571"><ele>3.0</ele><time>2026-05-01T09:22:13.698Z</time></trkpt><trkpt lat="37.8596841" lon="12.4849933"><ele>3.0</ele><time>2026-05-01T09:22:16.691Z</time></trkpt><trkpt lat="37.85976" lon="12.4850114"><ele>3.0</ele><time>2026-05-01T09:22:19.649Z</time></trkpt><trkpt lat="37.8598402" lon="12.485009"><ele>3.0</ele><time>2026-05-01T09:22:22.698Z</time></trkpt><trkpt lat="37.859914" lon="12.4850152"><ele>3.0</ele><time>2026-05-01T09:22:25.698Z</time></trkpt><trkpt lat="37.8599864" lon="12.4850349"><ele>3.0</ele><time>2026-05-01T09:22:28.698Z</time></trkpt><trkpt lat="37.8600588" lon="12.4850524"><ele>3.0</ele><time>2026-05-01T09:22:31.698Z</time></trkpt><trkpt lat="37.8601305" lon="12.4850655"><ele>2.9999999999999996</ele><time>2026-05-01T09:22:34.697Z</time></trkpt><trkpt lat="37.8601998" lon="12.4850831"><ele>3.0</ele><time>2026-05-01T09:22:37.697Z</time></trkpt><trkpt lat="37.8602598" lon="12.4850521"><ele>3.0</ele><time>2026-05-01T09:22:40.64Z</time></trkpt><trkpt lat="37.8603214" lon="12.4850757"><ele>3.0</ele><time>2026-05-01T09:22:42.698Z</time></trkpt><trkpt lat="37.8603947" lon="12.4850802"><ele>3.0</ele><time>2026-05-01T09:22:45.698Z</time></trkpt><trkpt lat="37.8604655" lon="12.4850826"><ele>2.9999999999999996</ele><time>2026-05-01T09:22:48.698Z</time></trkpt><trkpt lat="37.8605349" lon="12.4850861"><ele>3.0</ele><time>2026-05-01T09:22:51.698Z</time></trkpt><trkpt lat="37.860607" lon="12.4850842"><ele>2.9999999999999996</ele><time>2026-05-01T09:22:54.698Z</time></trkpt><trkpt lat="37.8606808" lon="12.4850793"><ele>3.0</ele><time>2026-05-01T09:22:57.698Z</time></trkpt><trkpt lat="37.8607528" lon="12.4850761"><ele>3.0</ele><time>2026-05-01T09:23:00.698Z</time></trkpt><trkpt lat="37.8608252" lon="12.4850715"><ele>3.0</ele><time>2026-05-01T09:23:03.698Z</time></trkpt><trkpt lat="37.8608972" lon="12.4850578"><ele>3.0</ele><time>2026-05-01T09:23:06.697Z</time></trkpt><trkpt lat="37.8609679" lon="12.48504"><ele>2.9999999999999996</ele><time>2026-05-01T09:23:09.698Z</time></trkpt><trkpt lat="37.8610369" lon="12.4850165"><ele>3.0</ele><time>2026-05-01T09:23:12.635Z</time></trkpt><trkpt lat="37.8611161" lon="12.4849933"><ele>2.8333333333333335</ele><time>2026-05-01T09:23:15.697Z</time></trkpt><trkpt lat="37.8611879" lon="12.4849497"><ele>2.6666666666666665</ele><time>2026-05-01T09:23:18.698Z</time></trkpt><trkpt lat="37.8612565" lon="12.484916"><ele>2.5</ele><time>2026-05-01T09:23:21.697Z</time></trkpt><trkpt lat="37.8613308" lon="12.4848936"><ele>2.333333333333333</ele><time>2026-05-01T09:23:24.696Z</time></trkpt><trkpt lat="37.8614082" lon="12.4848838"><ele>2.1666666666666665</ele><time>2026-05-01T09:23:27.676Z</time></trkpt><trkpt lat="37.8614829" lon="12.4848855"><ele>2.0</ele><time>2026-05-01T09:23:30.674Z</time></trkpt><trkpt lat="37.8615567" lon="12.4848837"><ele>2.0</ele><time>2026-05-01T09:23:33.697Z</time></trkpt><trkpt lat="37.8616286" lon="12.4848771"><ele>1.9999999999999998</ele><time>2026-05-01T09:23:36.667Z</time></trkpt><trkpt lat="37.8617046" lon="12.4848727"><ele>2.0</ele><time>2026-05-01T09:23:39.697Z</time></trkpt><trkpt lat="37.8617755" lon="12.4848669"><ele>2.0</ele><time>2026-05-01T09:23:42.614Z</time></trkpt><trkpt lat="37.8618529" lon="12.4848646"><ele>1.9999999999999998</ele><time>2026-05-01T09:23:45.698Z</time></trkpt><trkpt lat="37.8619252" lon="12.4848602"><ele>2.0</ele><time>2026-05-01T09:23:48.697Z</time></trkpt><trkpt lat="37.8619971" lon="12.4848616"><ele>2.0</ele><time>2026-05-01T09:23:51.698Z</time></trkpt><trkpt lat="37.8620699" lon="12.4848652"><ele>2.4285714285714284</ele><time>2026-05-01T09:23:54.698Z</time></trkpt><trkpt lat="37.8621427" lon="12.4848713"><ele>2.8571428571428568</ele><time>2026-05-01T09:23:57.696Z</time></trkpt><trkpt lat="37.8622134" lon="12.4848764"><ele>3.2857142857142856</ele><time>2026-05-01T09:24:00.698Z</time></trkpt><trkpt lat="37.8622842" lon="12.4848829"><ele>3.7142857142857144</ele><time>2026-05-01T09:24:03.698Z</time></trkpt><trkpt lat="37.8623589" lon="12.4848913"><ele>4.142857142857143</ele><time>2026-05-01T09:24:06.697Z</time></trkpt><trkpt lat="37.8624326" lon="12.4849059"><ele>4.571428571428571</ele><time>2026-05-01T09:24:09.677Z</time></trkpt><trkpt lat="37.8625123" lon="12.4849316"><ele>5.0</ele><time>2026-05-01T09:24:12.611Z</time></trkpt><trkpt lat="37.8625892" lon="12.484949"><ele>4.857142857142857</ele><time>2026-05-01T09:24:15.697Z</time></trkpt><trkpt lat="37.8626568" lon="12.4849694"><ele>4.714285714285714</ele><time>2026-05-01T09:24:18.698Z</time></trkpt><trkpt lat="37.8627275" lon="12.4849879"><ele>4.571428571428571</ele><time>2026-05-01T09:24:21.698Z</time></trkpt><trkpt lat="37.8627972" lon="12.4850073"><ele>4.428571428571429</ele><time>2026-05-01T09:24:24.698Z</time></trkpt><trkpt lat="37.8628643" lon="12.4850371"><ele>4.285714285714286</ele><time>2026-05-01T09:24:27.698Z</time></trkpt><trkpt lat="37.8629321" lon="12.4850636"><ele>4.142857142857142</ele><time>2026-05-01T09:24:30.698Z</time></trkpt><trkpt lat="37.8629992" lon="12.48506"><ele>4.0</ele><time>2026-05-01T09:24:33.698Z</time></trkpt><trkpt lat="37.8629828" lon="12.4849829"><ele>4.0</ele><time>2026-05-01T09:24:45.62Z</time></trkpt><trkpt lat="37.8629352" lon="12.4849261"><ele>4.0</ele><time>2026-05-01T09:24:47.698Z</time></trkpt><trkpt lat="37.8627679" lon="12.4850141"><ele>4.0</ele><time>2026-05-01T09:24:49.698Z</time></trkpt><trkpt lat="37.8626973" lon="12.485001"><ele>4.0</ele><time>2026-05-01T09:24:51.697Z</time></trkpt><trkpt lat="37.8626251" lon="12.4849811"><ele>4.0</ele><time>2026-05-01T09:24:54.698Z</time></trkpt><trkpt lat="37.8625562" lon="12.4849708"><ele>4.142857142857142</ele><time>2026-05-01T09:24:57.698Z</time></trkpt><trkpt lat="37.8624887" lon="12.4849552"><ele>4.285714285714286</ele><time>2026-05-01T09:25:00.697Z</time></trkpt><trkpt lat="37.8624171" lon="12.4849386"><ele>4.428571428571429</ele><time>2026-05-01T09:25:03.697Z</time></trkpt><trkpt lat="37.8623463" lon="12.4849339"><ele>4.571428571428571</ele><time>2026-05-01T09:25:06.697Z</time></trkpt><trkpt lat="37.8622791" lon="12.4849366"><ele>4.714285714285714</ele><time>2026-05-01T09:25:09.616Z</time></trkpt><trkpt lat="37.8622129" lon="12.4849386"><ele>4.857142857142857</ele><time>2026-05-01T09:25:12.7Z</time></trkpt><trkpt lat="37.8621448" lon="12.4849415"><ele>5.0</ele><time>2026-05-01T09:25:15.697Z</time></trkpt><trkpt lat="37.8620796" lon="12.4849367"><ele>5.0</ele><time>2026-05-01T09:25:18.697Z</time></trkpt><trkpt lat="37.8620104" lon="12.4849338"><ele>5.0</ele><time>2026-05-01T09:25:21.698Z</time></trkpt><trkpt lat="37.861943" lon="12.4849297"><ele>5.0</ele><time>2026-05-01T09:25:24.698Z</time></trkpt><trkpt lat="37.8618742" lon="12.4849298"><ele>5.0</ele><time>2026-05-01T09:25:27.698Z</time></trkpt><trkpt lat="37.8618039" lon="12.4849282"><ele>5.0</ele><time>2026-05-01T09:25:30.698Z</time></trkpt><trkpt lat="37.8617319" lon="12.4849273"><ele>5.0</ele><time>2026-05-01T09:25:33.697Z</time></trkpt><trkpt lat="37.8616571" lon="12.4849296"><ele>5.0</ele><time>2026-05-01T09:25:36.597Z</time></trkpt><trkpt lat="37.8615836" lon="12.4849318"><ele>4.571428571428571</ele><time>2026-05-01T09:25:39.696Z</time></trkpt><trkpt lat="37.8615099" lon="12.4849362"><ele>4.142857142857143</ele><time>2026-05-01T09:25:42.698Z</time></trkpt><trkpt lat="37.861432" lon="12.4849468"><ele>3.7142857142857144</ele><time>2026-05-01T09:25:45.698Z</time></trkpt><trkpt lat="37.8613583" lon="12.4849524"><ele>3.2857142857142856</ele><time>2026-05-01T09:25:48.698Z</time></trkpt><trkpt lat="37.8612893" lon="12.4849614"><ele>2.8571428571428568</ele><time>2026-05-01T09:25:51.698Z</time></trkpt><trkpt lat="37.8612219" lon="12.4849858"><ele>2.4285714285714284</ele><time>2026-05-01T09:25:54.697Z</time></trkpt><trkpt lat="37.8611535" lon="12.4850153"><ele>2.0</ele><time>2026-05-01T09:25:57.698Z</time></trkpt><trkpt lat="37.8610817" lon="12.4850487"><ele>2.0</ele><time>2026-05-01T09:26:00.697Z</time></trkpt><trkpt lat="37.8610083" lon="12.4850823"><ele>1.9999999999999998</ele><time>2026-05-01T09:26:03.697Z</time></trkpt><trkpt lat="37.8609338" lon="12.4851133"><ele>2.0</ele><time>2026-05-01T09:26:06.697Z</time></trkpt><trkpt lat="37.8608628" lon="12.4851256"><ele>2.0</ele><time>2026-05-01T09:26:09.698Z</time></trkpt><trkpt lat="37.8607921" lon="12.4851324"><ele>1.9999999999999998</ele><time>2026-05-01T09:26:12.698Z</time></trkpt><trkpt lat="37.8607222" lon="12.4851339"><ele>2.0</ele><time>2026-05-01T09:26:15.698Z</time></trkpt><trkpt lat="37.860654" lon="12.4851287"><ele>2.0</ele><time>2026-05-01T09:26:18.697Z</time></trkpt><trkpt lat="37.860584" lon="12.485129"><ele>2.1666666666666665</ele><time>2026-05-01T09:26:21.697Z</time></trkpt><trkpt lat="37.8605106" lon="12.4851342"><ele>2.333333333333333</ele><time>2026-05-01T09:26:24.698Z</time></trkpt><trkpt lat="37.8604379" lon="12.4851373"><ele>2.5</ele><time>2026-05-01T09:26:27.697Z</time></trkpt><trkpt lat="37.8603625" lon="12.4851442"><ele>2.6666666666666665</ele><time>2026-05-01T09:26:30.695Z</time></trkpt><trkpt lat="37.8602907" lon="12.4851505"><ele>2.8333333333333335</ele><time>2026-05-01T09:26:33.694Z</time></trkpt><trkpt lat="37.8602136" lon="12.4851552"><ele>3.0</ele><time>2026-05-01T09:26:36.659Z</time></trkpt><trkpt lat="37.8601345" lon="12.4851433"><ele>2.714285714285714</ele><time>2026-05-01T09:26:39.697Z</time></trkpt><trkpt lat="37.8600644" lon="12.4851344"><ele>2.4285714285714284</ele><time>2026-05-01T09:26:42.696Z</time></trkpt><trkpt lat="37.8599948" lon="12.4851109"><ele>2.142857142857143</ele><time>2026-05-01T09:26:45.697Z</time></trkpt><trkpt lat="37.8599238" lon="12.4850877"><ele>1.857142857142857</ele><time>2026-05-01T09:26:48.697Z</time></trkpt><trkpt lat="37.8598532" lon="12.4850704"><ele>1.5714285714285712</ele><time>2026-05-01T09:26:51.696Z</time></trkpt><trkpt lat="37.8597837" lon="12.4850564"><ele>1.2857142857142856</ele><time>2026-05-01T09:26:54.696Z</time></trkpt><trkpt lat="37.859713" lon="12.485047"><ele>1.0</ele><time>2026-05-01T09:26:57.696Z</time></trkpt><trkpt lat="37.8596426" lon="12.4850341"><ele>1.0</ele><time>2026-05-01T09:27:00.696Z</time></trkpt><trkpt lat="37.8595718" lon="12.4850162"><ele>0.9999999999999999</ele><time>2026-05-01T09:27:03.697Z</time></trkpt><trkpt lat="37.8595007" lon="12.4849942"><ele>1.0</ele><time>2026-05-01T09:27:06.697Z</time></trkpt><trkpt lat="37.8594319" lon="12.4849763"><ele>1.0</ele><time>2026-05-01T09:27:09.697Z</time></trkpt><trkpt lat="37.8593559" lon="12.4849609"><ele>0.9999999999999999</ele><time>2026-05-01T09:27:12.696Z</time></trkpt><trkpt lat="37.859273" lon="12.484944"><ele>1.0</ele><time>2026-05-01T09:27:15.696Z</time></trkpt><trkpt lat="37.8592145" lon="12.4849134"><ele>1.0</ele><time>2026-05-01T09:27:18.696Z</time></trkpt><trkpt lat="37.8591701" lon="12.4848383"><ele>1.2857142857142856</ele><time>2026-05-01T09:27:59.697Z</time></trkpt><trkpt lat="37.8591066" lon="12.484811"><ele>1.5714285714285712</ele><time>2026-05-01T09:28:04.696Z</time></trkpt><trkpt lat="37.8590295" lon="12.48481"><ele>1.857142857142857</ele><time>2026-05-01T09:28:09.696Z</time></trkpt><trkpt lat="37.8589617" lon="12.4847835"><ele>2.142857142857143</ele><time>2026-05-01T09:28:12.697Z</time></trkpt><trkpt lat="37.8588917" lon="12.4847601"><ele>2.4285714285714284</ele><time>2026-05-01T09:28:15.697Z</time></trkpt><trkpt lat="37.8588191" lon="12.484734"><ele>2.714285714285714</ele><time>2026-05-01T09:28:18.697Z</time></trkpt><trkpt lat="37.8587454" lon="12.4847232"><ele>3.0</ele><time>2026-05-01T09:28:21.614Z</time></trkpt><trkpt lat="37.8586728" lon="12.4847087"><ele>2.9999999999999996</ele><time>2026-05-01T09:28:24.651Z</time></trkpt><trkpt lat="37.8586035" lon="12.4846951"><ele>3.0</ele><time>2026-05-01T09:28:27.696Z</time></trkpt><trkpt lat="37.8585361" lon="12.4846775"><ele>3.0</ele><time>2026-05-01T09:28:30.697Z</time></trkpt><trkpt lat="37.858467" lon="12.4846594"><ele>3.0</ele><time>2026-05-01T09:28:33.696Z</time></trkpt><trkpt lat="37.8584011" lon="12.4846361"><ele>3.0</ele><time>2026-05-01T09:28:36.696Z</time></trkpt><trkpt lat="37.8583296" lon="12.4846056"><ele>2.9999999999999996</ele><time>2026-05-01T09:28:39.697Z</time></trkpt><trkpt lat="37.8582603" lon="12.4845723"><ele>3.0</ele><time>2026-05-01T09:28:42.697Z</time></trkpt><trkpt lat="37.8581925" lon="12.484533"><ele>2.6666666666666665</ele><time>2026-05-01T09:28:45.697Z</time></trkpt><trkpt lat="37.8581253" lon="12.4844957"><ele>2.3333333333333335</ele><time>2026-05-01T09:28:48.697Z</time></trkpt><trkpt lat="37.8580562" lon="12.4844542"><ele>2.0</ele><time>2026-05-01T09:28:51.69Z</time></trkpt><trkpt lat="37.857991" lon="12.4844141"><ele>1.6666666666666665</ele><time>2026-05-01T09:28:54.671Z</time></trkpt><trkpt lat="37.8579235" lon="12.4843569"><ele>1.3333333333333333</ele><time>2026-05-01T09:28:57.695Z</time></trkpt><trkpt lat="37.8578576" lon="12.4843055"><ele>1.0</ele><time>2026-05-01T09:29:00.696Z</time></trkpt><trkpt lat="37.8577883" lon="12.4842645"><ele>0.9999999999999999</ele><time>2026-05-01T09:29:03.696Z</time></trkpt><trkpt lat="37.8577201" lon="12.4842198"><ele>1.0</ele><time>2026-05-01T09:29:06.696Z</time></trkpt><trkpt lat="37.8576563" lon="12.4841805"><ele>1.0</ele><time>2026-05-01T09:29:09.671Z</time></trkpt><trkpt lat="37.8576022" lon="12.4841282"><ele>1.0</ele><time>2026-05-01T09:29:11.696Z</time></trkpt><trkpt lat="37.85754" lon="12.4839991"><ele>0.9999999999999999</ele><time>2026-05-01T09:29:14.697Z</time></trkpt><trkpt lat="37.8575007" lon="12.4839146"><ele>1.0</ele><time>2026-05-01T09:29:16.696Z</time></trkpt><trkpt lat="37.8574766" lon="12.4837998"><ele>1.3333333333333333</ele><time>2026-05-01T09:29:19.696Z</time></trkpt><trkpt lat="37.8574537" lon="12.4836909"><ele>1.6666666666666665</ele><time>2026-05-01T09:29:22.697Z</time></trkpt><trkpt lat="37.8574212" lon="12.4836016"><ele>2.0</ele><time>2026-05-01T09:29:25.614Z</time></trkpt><trkpt lat="37.8573922" lon="12.4834992"><ele>2.3333333333333335</ele><time>2026-05-01T09:29:28.697Z</time></trkpt><trkpt lat="37.8573557" lon="12.4834046"><ele>2.6666666666666665</ele><time>2026-05-01T09:29:31.696Z</time></trkpt><trkpt lat="37.8573177" lon="12.4833064"><ele>3.0</ele><time>2026-05-01T09:29:34.696Z</time></trkpt><trkpt lat="37.8572865" lon="12.4832172"><ele>3.0</ele><time>2026-05-01T09:29:37.697Z</time></trkpt><trkpt lat="37.8572579" lon="12.4831289"><ele>3.0</ele><time>2026-05-01T09:29:40.617Z</time></trkpt><trkpt lat="37.8572273" lon="12.4830324"><ele>3.0</ele><time>2026-05-01T09:29:43.697Z</time></trkpt><trkpt lat="37.8571958" lon="12.4829448"><ele>3.0</ele><time>2026-05-01T09:29:46.696Z</time></trkpt><trkpt lat="37.8571594" lon="12.4828537"><ele>3.0</ele><time>2026-05-01T09:29:49.696Z</time></trkpt><trkpt lat="37.8571236" lon="12.4827548"><ele>3.0</ele><time>2026-05-01T09:29:52.697Z</time></trkpt><trkpt lat="37.8570866" lon="12.4826624"><ele>2.8571428571428568</ele><time>2026-05-01T09:29:55.697Z</time></trkpt><trkpt lat="37.8570639" lon="12.4825873"><ele>2.7142857142857144</ele><time>2026-05-01T09:29:57.696Z</time></trkpt><trkpt lat="37.8570464" lon="12.4825105"><ele>2.571428571428571</ele><time>2026-05-01T09:30:00.69Z</time></trkpt><trkpt lat="37.8570371" lon="12.4824116"><ele>2.4285714285714284</ele><time>2026-05-01T09:30:03.51Z</time></trkpt><trkpt lat="37.8570259" lon="12.4823033"><ele>2.2857142857142856</ele><time>2026-05-01T09:30:06.697Z</time></trkpt><trkpt lat="37.8570085" lon="12.4821943"><ele>2.142857142857143</ele><time>2026-05-01T09:30:09.686Z</time></trkpt><trkpt lat="37.8569957" lon="12.4821119"><ele>2.0</ele><time>2026-05-01T09:30:12.625Z</time></trkpt><trkpt lat="37.8569812" lon="12.4819992"><ele>1.9999999999999998</ele><time>2026-05-01T09:30:15.697Z</time></trkpt><trkpt lat="37.8569681" lon="12.4818983"><ele>2.0</ele><time>2026-05-01T09:30:18.696Z</time></trkpt><trkpt lat="37.8569503" lon="12.4818022"><ele>2.0</ele><time>2026-05-01T09:30:21.617Z</time></trkpt><trkpt lat="37.8569361" lon="12.4817051"><ele>2.0</ele><time>2026-05-01T09:30:24.697Z</time></trkpt><trkpt lat="37.8569214" lon="12.4815918"><ele>1.9999999999999998</ele><time>2026-05-01T09:30:27.696Z</time></trkpt><trkpt lat="37.8569179" lon="12.4815106"><ele>2.0</ele><time>2026-05-01T09:30:29.696Z</time></trkpt><trkpt lat="37.8569136" lon="12.4813916"><ele>1.9999999999999998</ele><time>2026-05-01T09:30:32.696Z</time></trkpt><trkpt lat="37.8569127" lon="12.4812806"><ele>2.0</ele><time>2026-05-01T09:30:35.697Z</time></trkpt><trkpt lat="37.8569161" lon="12.4811646"><ele>2.0</ele><time>2026-05-01T09:30:38.697Z</time></trkpt><trkpt lat="37.8569122" lon="12.481059"><ele>2.0</ele><time>2026-05-01T09:30:41.697Z</time></trkpt><trkpt lat="37.8569134" lon="12.4809501"><ele>1.9999999999999998</ele><time>2026-05-01T09:30:44.697Z</time></trkpt><trkpt lat="37.8568954" lon="12.4808378"><ele>2.0</ele><time>2026-05-01T09:30:47.697Z</time></trkpt><trkpt lat="37.8568747" lon="12.480732"><ele>1.9999999999999998</ele><time>2026-05-01T09:30:50.653Z</time></trkpt><trkpt lat="37.8568575" lon="12.4806273"><ele>2.0</ele><time>2026-05-01T09:30:53.697Z</time></trkpt><trkpt lat="37.8568481" lon="12.480524"><ele>2.0</ele><time>2026-05-01T09:30:56.693Z</time></trkpt><trkpt lat="37.8568399" lon="12.4804307"><ele>2.0</ele><time>2026-05-01T09:30:59.697Z</time></trkpt><trkpt lat="37.8568196" lon="12.4803398"><ele>1.9999999999999998</ele><time>2026-05-01T09:31:02.697Z</time></trkpt><trkpt lat="37.85679" lon="12.4802482"><ele>2.0</ele><time>2026-05-01T09:31:05.696Z</time></trkpt><trkpt lat="37.8567526" lon="12.4801624"><ele>1.9999999999999998</ele><time>2026-05-01T09:31:08.634Z</time></trkpt><trkpt lat="37.8567181" lon="12.4800663"><ele>2.0</ele><time>2026-05-01T09:31:11.696Z</time></trkpt><trkpt lat="37.8566958" lon="12.4799748"><ele>2.0</ele><time>2026-05-01T09:31:14.696Z</time></trkpt><trkpt lat="37.8566831" lon="12.4798715"><ele>2.0</ele><time>2026-05-01T09:31:17.697Z</time></trkpt><trkpt lat="37.8566653" lon="12.4797757"><ele>1.9999999999999998</ele><time>2026-05-01T09:31:20.697Z</time></trkpt><trkpt lat="37.8566555" lon="12.4796728"><ele>2.0</ele><time>2026-05-01T09:31:23.697Z</time></trkpt><trkpt lat="37.8566635" lon="12.4795717"><ele>2.333333333333333</ele><time>2026-05-01T09:31:26.626Z</time></trkpt><trkpt lat="37.8566706" lon="12.4794865"><ele>2.6666666666666665</ele><time>2026-05-01T09:31:28.6Z</time></trkpt><trkpt lat="37.8566796" lon="12.4793615"><ele>3.0</ele><time>2026-05-01T09:31:30.697Z</time></trkpt><trkpt lat="37.8566926" lon="12.4792512"><ele>3.333333333333333</ele><time>2026-05-01T09:31:33.697Z</time></trkpt><trkpt lat="37.8566841" lon="12.4791484"><ele>3.6666666666666665</ele><time>2026-05-01T09:31:36.695Z</time></trkpt><trkpt lat="37.8566605" lon="12.4790508"><ele>4.0</ele><time>2026-05-01T09:31:39.697Z</time></trkpt><trkpt lat="37.8566247" lon="12.4789588"><ele>3.9999999999999996</ele><time>2026-05-01T09:31:42.697Z</time></trkpt><trkpt lat="37.8565914" lon="12.4788683"><ele>4.0</ele><time>2026-05-01T09:31:45.696Z</time></trkpt><trkpt lat="37.8565599" lon="12.4787785"><ele>4.0</ele><time>2026-05-01T09:31:48.672Z</time></trkpt><trkpt lat="37.8565295" lon="12.4786858"><ele>4.0</ele><time>2026-05-01T09:31:51.597Z</time></trkpt><trkpt lat="37.8565041" lon="12.4785813"><ele>3.9999999999999996</ele><time>2026-05-01T09:31:54.696Z</time></trkpt><trkpt lat="37.8565009" lon="12.4784798"><ele>4.0</ele><time>2026-05-01T09:31:57.697Z</time></trkpt><trkpt lat="37.8565255" lon="12.4783901"><ele>3.833333333333333</ele><time>2026-05-01T09:32:00.697Z</time></trkpt><trkpt lat="37.8565316" lon="12.4782876"><ele>3.6666666666666665</ele><time>2026-05-01T09:32:03.61Z</time></trkpt><trkpt lat="37.8565249" lon="12.478195"><ele>3.5</ele><time>2026-05-01T09:32:06.697Z</time></trkpt><trkpt lat="37.8565264" lon="12.4780953"><ele>3.333333333333333</ele><time>2026-05-01T09:32:09.696Z</time></trkpt><trkpt lat="37.856526" lon="12.4779985"><ele>3.1666666666666665</ele><time>2026-05-01T09:32:12.696Z</time></trkpt><trkpt lat="37.8565042" lon="12.4779039"><ele>3.0</ele><time>2026-05-01T09:32:15.697Z</time></trkpt><trkpt lat="37.8564722" lon="12.4778227"><ele>2.714285714285714</ele><time>2026-05-01T09:32:18.696Z</time></trkpt><trkpt lat="37.8564443" lon="12.4777356"><ele>2.4285714285714284</ele><time>2026-05-01T09:32:21.71Z</time></trkpt><trkpt lat="37.8563932" lon="12.4776678"><ele>2.142857142857143</ele><time>2026-05-01T09:32:24.676Z</time></trkpt><trkpt lat="37.8563309" lon="12.4776149"><ele>1.857142857142857</ele><time>2026-05-01T09:32:27.697Z</time></trkpt><trkpt lat="37.8562626" lon="12.4775969"><ele>1.5714285714285712</ele><time>2026-05-01T09:32:30.697Z</time></trkpt><trkpt lat="37.8561941" lon="12.4775954"><ele>1.2857142857142856</ele><time>2026-05-01T09:32:33.697Z</time></trkpt><trkpt lat="37.856124" lon="12.4775891"><ele>1.0</ele><time>2026-05-01T09:32:36.696Z</time></trkpt><trkpt lat="37.8560544" lon="12.477574"><ele>1.0</ele><time>2026-05-01T09:32:39.696Z</time></trkpt><trkpt lat="37.855989" lon="12.4775418"><ele>0.9999999999999999</ele><time>2026-05-01T09:32:42.675Z</time></trkpt><trkpt lat="37.8559268" lon="12.477491"><ele>1.0</ele><time>2026-05-01T09:32:45.697Z</time></trkpt><trkpt lat="37.8558735" lon="12.4774376"><ele>1.0</ele><time>2026-05-01T09:32:48.608Z</time></trkpt><trkpt lat="37.8558143" lon="12.477381"><ele>0.9999999999999999</ele><time>2026-05-01T09:32:51.696Z</time></trkpt><trkpt lat="37.8557535" lon="12.4773321"><ele>1.0</ele><time>2026-05-01T09:32:54.696Z</time></trkpt><trkpt lat="37.8556976" lon="12.4772804"><ele>1.0</ele><time>2026-05-01T09:32:57.673Z</time></trkpt><trkpt lat="37.8556325" lon="12.4772128"><ele>0.8333333333333333</ele><time>2026-05-01T09:33:00.697Z</time></trkpt><trkpt lat="37.8555598" lon="12.4771566"><ele>0.6666666666666666</ele><time>2026-05-01T09:33:03.697Z</time></trkpt><trkpt lat="37.8554934" lon="12.4770984"><ele>0.5</ele><time>2026-05-01T09:33:06.697Z</time></trkpt><trkpt lat="37.8554366" lon="12.4770365"><ele>0.3333333333333333</ele><time>2026-05-01T09:33:09.697Z</time></trkpt><trkpt lat="37.8553833" lon="12.476958"><ele>0.16666666666666666</ele><time>2026-05-01T09:33:12.697Z</time></trkpt><trkpt lat="37.8553263" lon="12.4768662"><ele>0.0</ele><time>2026-05-01T09:33:15.697Z</time></trkpt><trkpt lat="37.855265" lon="12.4768042"><ele>0.0</ele><time>2026-05-01T09:33:18.697Z</time></trkpt><trkpt lat="37.8552017" lon="12.4767576"><ele>0.0</ele><time>2026-05-01T09:33:21.633Z</time></trkpt><trkpt lat="37.8551266" lon="12.4767286"><ele>0.0</ele><time>2026-05-01T09:33:24.697Z</time></trkpt><trkpt lat="37.8550553" lon="12.4766986"><ele>0.0</ele><time>2026-05-01T09:33:27.697Z</time></trkpt><trkpt lat="37.8549891" lon="12.476669"><ele>0.0</ele><time>2026-05-01T09:33:30.637Z</time></trkpt><trkpt lat="37.8549138" lon="12.4766346"><ele>0.0</ele><time>2026-05-01T09:33:33.696Z</time></trkpt><trkpt lat="37.8548365" lon="12.4766015"><ele>0.3333333333333333</ele><time>2026-05-01T09:33:36.697Z</time></trkpt><trkpt lat="37.8547629" lon="12.4765853"><ele>0.6666666666666666</ele><time>2026-05-01T09:33:39.697Z</time></trkpt><trkpt lat="37.8546887" lon="12.4765731"><ele>1.0</ele><time>2026-05-01T09:33:42.697Z</time></trkpt><trkpt lat="37.8546187" lon="12.4765592"><ele>1.3333333333333333</ele><time>2026-05-01T09:33:45.61Z</time></trkpt><trkpt lat="37.8545272" lon="12.4765433"><ele>1.6666666666666665</ele><time>2026-05-01T09:33:48.697Z</time></trkpt><trkpt lat="37.8544421" lon="12.4765071"><ele>2.0</ele><time>2026-05-01T09:33:51.694Z</time></trkpt><trkpt lat="37.8543654" lon="12.4764768"><ele>1.9999999999999998</ele><time>2026-05-01T09:33:54.632Z</time></trkpt><trkpt lat="37.8542957" lon="12.4764356"><ele>2.0</ele><time>2026-05-01T09:33:57.696Z</time></trkpt><trkpt lat="37.8542261" lon="12.4763983"><ele>2.0</ele><time>2026-05-01T09:34:00.697Z</time></trkpt><trkpt lat="37.8541589" lon="12.4763643"><ele>2.0</ele><time>2026-05-01T09:34:03.696Z</time></trkpt><trkpt lat="37.8540887" lon="12.4763227"><ele>1.9999999999999998</ele><time>2026-05-01T09:34:06.696Z</time></trkpt><trkpt lat="37.8540191" lon="12.4762793"><ele>2.0</ele><time>2026-05-01T09:34:09.718Z</time></trkpt><trkpt lat="37.8539463" lon="12.4762461"><ele>1.7142857142857142</ele><time>2026-05-01T09:34:12.697Z</time></trkpt><trkpt lat="37.8538782" lon="12.4762181"><ele>1.4285714285714284</ele><time>2026-05-01T09:34:15.636Z</time></trkpt><trkpt lat="37.8537984" lon="12.4761963"><ele>1.1428571428571428</ele><time>2026-05-01T09:34:18.696Z</time></trkpt><trkpt lat="37.8537204" lon="12.4761732"><ele>0.8571428571428571</ele><time>2026-05-01T09:34:21.697Z</time></trkpt><trkpt lat="37.8536462" lon="12.4761575"><ele>0.5714285714285714</ele><time>2026-05-01T09:34:24.697Z</time></trkpt><trkpt lat="37.8535779" lon="12.4761462"><ele>0.2857142857142857</ele><time>2026-05-01T09:34:27.614Z</time></trkpt><trkpt lat="37.8535076" lon="12.476128"><ele>0.0</ele><time>2026-05-01T09:34:30.696Z</time></trkpt><trkpt lat="37.8534404" lon="12.4761035"><ele>1.0</ele><time>2026-05-01T09:34:33.696Z</time></trkpt><trkpt lat="37.8533641" lon="12.4760482"><ele>2.0</ele><time>2026-05-01T09:34:36.697Z</time></trkpt><trkpt lat="37.8532922" lon="12.4760013"><ele>3.0</ele><time>2026-05-01T09:34:39.707Z</time></trkpt><trkpt lat="37.8532309" lon="12.4759422"><ele>4.0</ele><time>2026-05-01T09:34:42.671Z</time></trkpt><trkpt lat="37.8531927" lon="12.4758747"><ele>5.0</ele><time>2026-05-01T09:34:44.697Z</time></trkpt><trkpt lat="37.8531457" lon="12.4757773"><ele>6.0</ele><time>2026-05-01T09:34:47.696Z</time></trkpt><trkpt lat="37.8531202" lon="12.4756731"><ele>6.0</ele><time>2026-05-01T09:34:50.697Z</time></trkpt><trkpt lat="37.8530953" lon="12.4755694"><ele>6.0</ele><time>2026-05-01T09:34:53.696Z</time></trkpt><trkpt lat="37.8530404" lon="12.475497"><ele>6.0</ele><time>2026-05-01T09:34:56.697Z</time></trkpt><trkpt lat="37.8529734" lon="12.475447"><ele>6.0</ele><time>2026-05-01T09:34:59.696Z</time></trkpt><trkpt lat="37.8529061" lon="12.4754066"><ele>6.0</ele><time>2026-05-01T09:35:02.696Z</time></trkpt><trkpt lat="37.8528355" lon="12.47537"><ele>6.0</ele><time>2026-05-01T09:35:05.697Z</time></trkpt><trkpt lat="37.852763" lon="12.475337"><ele>5.571428571428571</ele><time>2026-05-01T09:35:08.69Z</time></trkpt><trkpt lat="37.8526959" lon="12.4752966"><ele>5.142857142857142</ele><time>2026-05-01T09:35:11.656Z</time></trkpt><trkpt lat="37.8526238" lon="12.4752484"><ele>4.7142857142857135</ele><time>2026-05-01T09:35:14.696Z</time></trkpt><trkpt lat="37.8525544" lon="12.4752088"><ele>4.285714285714286</ele><time>2026-05-01T09:35:17.696Z</time></trkpt><trkpt lat="37.8524876" lon="12.4751782"><ele>3.8571428571428568</ele><time>2026-05-01T09:35:20.637Z</time></trkpt><trkpt lat="37.8524211" lon="12.4751448"><ele>3.4285714285714284</ele><time>2026-05-01T09:35:23.696Z</time></trkpt><trkpt lat="37.8523588" lon="12.4751157"><ele>3.0</ele><time>2026-05-01T09:35:26.611Z</time></trkpt><trkpt lat="37.8522922" lon="12.4750765"><ele>3.0</ele><time>2026-05-01T09:35:29.696Z</time></trkpt><trkpt lat="37.8522294" lon="12.4750303"><ele>3.0</ele><time>2026-05-01T09:35:32.696Z</time></trkpt><trkpt lat="37.8521723" lon="12.474978"><ele>3.0</ele><time>2026-05-01T09:35:35.697Z</time></trkpt><trkpt lat="37.8521216" lon="12.4749145"><ele>3.0</ele><time>2026-05-01T09:35:38.697Z</time></trkpt><trkpt lat="37.8520667" lon="12.4748552"><ele>3.0</ele><time>2026-05-01T09:35:41.696Z</time></trkpt><trkpt lat="37.8520028" lon="12.4747835"><ele>3.0</ele><time>2026-05-01T09:35:44.695Z</time></trkpt><trkpt lat="37.8519338" lon="12.4747318"><ele>3.0</ele><time>2026-05-01T09:35:47.695Z</time></trkpt><trkpt lat="37.8518743" lon="12.4746705"><ele>3.0</ele><time>2026-05-01T09:35:50.696Z</time></trkpt><trkpt lat="37.8518151" lon="12.4746138"><ele>3.0</ele><time>2026-05-01T09:35:53.637Z</time></trkpt><trkpt lat="37.8517504" lon="12.4745583"><ele>3.0</ele><time>2026-05-01T09:35:56.67Z</time></trkpt><trkpt lat="37.8516828" lon="12.4745145"><ele>3.0</ele><time>2026-05-01T09:35:59.695Z</time></trkpt><trkpt lat="37.8516148" lon="12.4744725"><ele>3.0</ele><time>2026-05-01T09:36:02.694Z</time></trkpt><trkpt lat="37.8515543" lon="12.4744205"><ele>2.9999999999999996</ele><time>2026-05-01T09:36:05.694Z</time></trkpt><trkpt lat="37.8514963" lon="12.4743729"><ele>3.0</ele><time>2026-05-01T09:36:08.695Z</time></trkpt><trkpt lat="37.8514354" lon="12.4743243"><ele>3.0</ele><time>2026-05-01T09:36:11.696Z</time></trkpt><trkpt lat="37.8513742" lon="12.4742751"><ele>3.0</ele><time>2026-05-01T09:36:14.696Z</time></trkpt><trkpt lat="37.8513132" lon="12.4742203"><ele>3.0</ele><time>2026-05-01T09:36:17.696Z</time></trkpt><trkpt lat="37.8512559" lon="12.4741581"><ele>2.9999999999999996</ele><time>2026-05-01T09:36:20.689Z</time></trkpt><trkpt lat="37.8512066" lon="12.4740888"><ele>3.0</ele><time>2026-05-01T09:36:23.653Z</time></trkpt><trkpt lat="37.8511757" lon="12.47401"><ele>2.9999999999999996</ele><time>2026-05-01T09:36:26.67Z</time></trkpt><trkpt lat="37.851135" lon="12.4739385"><ele>3.0</ele><time>2026-05-01T09:36:29.695Z</time></trkpt><trkpt lat="37.8510882" lon="12.4738734"><ele>3.0</ele><time>2026-05-01T09:36:32.695Z</time></trkpt><trkpt lat="37.8510277" lon="12.4738231"><ele>3.0</ele><time>2026-05-01T09:36:35.695Z</time></trkpt><trkpt lat="37.8509672" lon="12.4737728"><ele>3.0</ele><time>2026-05-01T09:36:38.695Z</time></trkpt><trkpt lat="37.8509104" lon="12.4737227"><ele>2.9999999999999996</ele><time>2026-05-01T09:36:41.705Z</time></trkpt><trkpt lat="37.8508496" lon="12.4736776"><ele>3.0</ele><time>2026-05-01T09:36:44.695Z</time></trkpt><trkpt lat="37.8507863" lon="12.4736379"><ele>2.714285714285714</ele><time>2026-05-01T09:36:47.656Z</time></trkpt><trkpt lat="37.8507211" lon="12.4735927"><ele>2.4285714285714284</ele><time>2026-05-01T09:36:50.696Z</time></trkpt><trkpt lat="37.8506548" lon="12.4735491"><ele>2.142857142857143</ele><time>2026-05-01T09:36:53.695Z</time></trkpt><trkpt lat="37.8505892" lon="12.473502"><ele>1.857142857142857</ele><time>2026-05-01T09:36:56.696Z</time></trkpt><trkpt lat="37.8505259" lon="12.4734516"><ele>1.5714285714285712</ele><time>2026-05-01T09:36:59.695Z</time></trkpt><trkpt lat="37.8504639" lon="12.4733991"><ele>1.2857142857142856</ele><time>2026-05-01T09:37:02.696Z</time></trkpt><trkpt lat="37.8504048" lon="12.4733437"><ele>1.0</ele><time>2026-05-01T09:37:05.695Z</time></trkpt><trkpt lat="37.8503431" lon="12.4732948"><ele>1.0</ele><time>2026-05-01T09:37:08.695Z</time></trkpt><trkpt lat="37.8502818" lon="12.4732452"><ele>0.9999999999999999</ele><time>2026-05-01T09:37:11.696Z</time></trkpt><trkpt lat="37.8502225" lon="12.473197"><ele>1.0</ele><time>2026-05-01T09:37:14.696Z</time></trkpt><trkpt lat="37.8501658" lon="12.473147"><ele>1.0</ele><time>2026-05-01T09:37:17.695Z</time></trkpt><trkpt lat="37.8501093" lon="12.4730892"><ele>0.9999999999999999</ele><time>2026-05-01T09:37:20.695Z</time></trkpt><trkpt lat="37.850053" lon="12.4730321"><ele>1.0</ele><time>2026-05-01T09:37:23.695Z</time></trkpt><trkpt lat="37.85" lon="12.4729735"><ele>1.0</ele><time>2026-05-01T09:37:26.696Z</time></trkpt><trkpt lat="37.8499457" lon="12.4729125"><ele>1.7142857142857142</ele><time>2026-05-01T09:37:29.696Z</time></trkpt><trkpt lat="37.8498944" lon="12.4728534"><ele>2.4285714285714284</ele><time>2026-05-01T09:37:32.696Z</time></trkpt><trkpt lat="37.8498467" lon="12.4727901"><ele>3.1428571428571423</ele><time>2026-05-01T09:37:35.696Z</time></trkpt><trkpt lat="37.849806" lon="12.4727189"><ele>3.8571428571428568</ele><time>2026-05-01T09:37:38.695Z</time></trkpt><trkpt lat="37.8497761" lon="12.4726295"><ele>4.571428571428571</ele><time>2026-05-01T09:37:41.696Z</time></trkpt><trkpt lat="37.8497521" lon="12.4725294"><ele>5.285714285714286</ele><time>2026-05-01T09:37:44.695Z</time></trkpt><trkpt lat="37.8497417" lon="12.4724261"><ele>6.0</ele><time>2026-05-01T09:37:47.696Z</time></trkpt><trkpt lat="37.8497523" lon="12.4723231"><ele>6.0</ele><time>2026-05-01T09:37:50.695Z</time></trkpt><trkpt lat="37.8497649" lon="12.4722118"><ele>6.0</ele><time>2026-05-01T09:37:53.695Z</time></trkpt><trkpt lat="37.8497693" lon="12.4721278"><ele>6.0</ele><time>2026-05-01T09:37:56.696Z</time></trkpt><trkpt lat="37.8497771" lon="12.4720294"><ele>6.0</ele><time>2026-05-01T09:37:59.696Z</time></trkpt><trkpt lat="37.8497895" lon="12.4719308"><ele>6.0</ele><time>2026-05-01T09:38:02.691Z</time></trkpt><trkpt lat="37.8497886" lon="12.4718287"><ele>6.0</ele><time>2026-05-01T09:38:05.672Z</time></trkpt><trkpt lat="37.8497787" lon="12.4717389"><ele>5.7142857142857135</ele><time>2026-05-01T09:38:08.653Z</time></trkpt><trkpt lat="37.849751" lon="12.4716516"><ele>5.428571428571429</ele><time>2026-05-01T09:38:11.695Z</time></trkpt><trkpt lat="37.8497117" lon="12.4715739"><ele>5.142857142857142</ele><time>2026-05-01T09:38:14.696Z</time></trkpt><trkpt lat="37.8496678" lon="12.4715015"><ele>4.857142857142857</ele><time>2026-05-01T09:38:17.695Z</time></trkpt><trkpt lat="37.8496291" lon="12.4714292"><ele>4.571428571428571</ele><time>2026-05-01T09:38:20.659Z</time></trkpt><trkpt lat="37.8495924" lon="12.4713491"><ele>4.285714285714286</ele><time>2026-05-01T09:38:23.695Z</time></trkpt><trkpt lat="37.8495727" lon="12.4712582"><ele>4.0</ele><time>2026-05-01T09:38:26.696Z</time></trkpt><trkpt lat="37.8495719" lon="12.4711636"><ele>3.6666666666666665</ele><time>2026-05-01T09:38:29.695Z</time></trkpt><trkpt lat="37.8495809" lon="12.4710677"><ele>3.333333333333333</ele><time>2026-05-01T09:38:32.674Z</time></trkpt><trkpt lat="37.8495962" lon="12.4709729"><ele>3.0</ele><time>2026-05-01T09:38:35.695Z</time></trkpt><trkpt lat="37.8496222" lon="12.4708833"><ele>2.6666666666666665</ele><time>2026-05-01T09:38:38.696Z</time></trkpt><trkpt lat="37.8496514" lon="12.4707943"><ele>2.333333333333333</ele><time>2026-05-01T09:38:41.695Z</time></trkpt><trkpt lat="37.8496782" lon="12.4707091"><ele>2.0</ele><time>2026-05-01T09:38:44.696Z</time></trkpt><trkpt lat="37.849709" lon="12.4706222"><ele>2.0</ele><time>2026-05-01T09:38:47.696Z</time></trkpt><trkpt lat="37.8497421" lon="12.4705365"><ele>1.9999999999999998</ele><time>2026-05-01T09:38:50.696Z</time></trkpt><trkpt lat="37.8497628" lon="12.4704461"><ele>2.0</ele><time>2026-05-01T09:38:53.694Z</time></trkpt><trkpt lat="37.8497743" lon="12.4703561"><ele>2.0</ele><time>2026-05-01T09:38:56.696Z</time></trkpt><trkpt lat="37.8497742" lon="12.4702623"><ele>1.9999999999999998</ele><time>2026-05-01T09:38:59.696Z</time></trkpt><trkpt lat="37.8497651" lon="12.4701706"><ele>2.0</ele><time>2026-05-01T09:39:02.695Z</time></trkpt><trkpt lat="37.8497206" lon="12.4700955"><ele>2.0</ele><time>2026-05-01T09:39:05.696Z</time></trkpt><trkpt lat="37.8496616" lon="12.4700381"><ele>1.7142857142857142</ele><time>2026-05-01T09:39:08.695Z</time></trkpt><trkpt lat="37.8496026" lon="12.4699877"><ele>1.4285714285714284</ele><time>2026-05-01T09:39:11.696Z</time></trkpt><trkpt lat="37.8495461" lon="12.4699422"><ele>1.1428571428571428</ele><time>2026-05-01T09:39:14.616Z</time></trkpt><trkpt lat="37.8494945" lon="12.4698833"><ele>0.8571428571428571</ele><time>2026-05-01T09:39:17.597Z</time></trkpt><trkpt lat="37.8494452" lon="12.4698118"><ele>0.5714285714285714</ele><time>2026-05-01T09:39:20.696Z</time></trkpt><trkpt lat="37.8493968" lon="12.4697423"><ele>0.2857142857142857</ele><time>2026-05-01T09:39:23.695Z</time></trkpt><trkpt lat="37.8493528" lon="12.4696702"><ele>0.0</ele><time>2026-05-01T09:39:26.695Z</time></trkpt><trkpt lat="37.8493142" lon="12.469592"><ele>0.5714285714285714</ele><time>2026-05-01T09:39:29.696Z</time></trkpt><trkpt lat="37.8492785" lon="12.4695127"><ele>1.1428571428571428</ele><time>2026-05-01T09:39:32.696Z</time></trkpt><trkpt lat="37.8492398" lon="12.4694406"><ele>1.7142857142857142</ele><time>2026-05-01T09:39:35.695Z</time></trkpt><trkpt lat="37.8491959" lon="12.4693586"><ele>2.2857142857142856</ele><time>2026-05-01T09:39:38.696Z</time></trkpt><trkpt lat="37.8491621" lon="12.4692892"><ele>2.8571428571428568</ele><time>2026-05-01T09:39:41.695Z</time></trkpt><trkpt lat="37.8491264" lon="12.4692052"><ele>3.4285714285714284</ele><time>2026-05-01T09:39:44.695Z</time></trkpt><trkpt lat="37.8491147" lon="12.4691079"><ele>4.0</ele><time>2026-05-01T09:39:47.696Z</time></trkpt><trkpt lat="37.8491205" lon="12.4690059"><ele>4.0</ele><time>2026-05-01T09:39:50.696Z</time></trkpt><trkpt lat="37.8491212" lon="12.4689194"><ele>3.9999999999999996</ele><time>2026-05-01T09:39:53.695Z</time></trkpt><trkpt lat="37.84912" lon="12.4688312"><ele>4.0</ele><time>2026-05-01T09:39:56.696Z</time></trkpt><trkpt lat="37.8491122" lon="12.4687398"><ele>4.0</ele><time>2026-05-01T09:39:59.696Z</time></trkpt><trkpt lat="37.8490909" lon="12.4686458"><ele>3.9999999999999996</ele><time>2026-05-01T09:40:02.696Z</time></trkpt><trkpt lat="37.8490683" lon="12.4685599"><ele>4.0</ele><time>2026-05-01T09:40:05.695Z</time></trkpt><trkpt lat="37.849048" lon="12.4684725"><ele>4.0</ele><time>2026-05-01T09:40:08.696Z</time></trkpt><trkpt lat="37.8490296" lon="12.468387"><ele>3.8571428571428568</ele><time>2026-05-01T09:40:11.696Z</time></trkpt><trkpt lat="37.8490134" lon="12.4683041"><ele>3.714285714285714</ele><time>2026-05-01T09:40:14.696Z</time></trkpt><trkpt lat="37.8489929" lon="12.4682206"><ele>3.571428571428571</ele><time>2026-05-01T09:40:17.696Z</time></trkpt><trkpt lat="37.8489801" lon="12.4681318"><ele>3.4285714285714284</ele><time>2026-05-01T09:40:20.695Z</time></trkpt><trkpt lat="37.848969" lon="12.4680429"><ele>3.2857142857142856</ele><time>2026-05-01T09:40:23.695Z</time></trkpt><trkpt lat="37.8489651" lon="12.4679488"><ele>3.1428571428571423</ele><time>2026-05-01T09:40:26.696Z</time></trkpt><trkpt lat="37.8489639" lon="12.4678574"><ele>3.0</ele><time>2026-05-01T09:40:29.696Z</time></trkpt><trkpt lat="37.8489771" lon="12.4677681"><ele>2.8571428571428568</ele><time>2026-05-01T09:40:32.694Z</time></trkpt><trkpt lat="37.8489952" lon="12.4676795"><ele>2.7142857142857144</ele><time>2026-05-01T09:40:35.696Z</time></trkpt><trkpt lat="37.8490146" lon="12.4675902"><ele>2.571428571428571</ele><time>2026-05-01T09:40:38.696Z</time></trkpt><trkpt lat="37.8490325" lon="12.4674994"><ele>2.4285714285714284</ele><time>2026-05-01T09:40:41.696Z</time></trkpt><trkpt lat="37.8490406" lon="12.4674052"><ele>2.2857142857142856</ele><time>2026-05-01T09:40:44.695Z</time></trkpt><trkpt lat="37.8490371" lon="12.4673121"><ele>2.142857142857143</ele><time>2026-05-01T09:40:47.695Z</time></trkpt><trkpt lat="37.8490157" lon="12.4672212"><ele>2.0</ele><time>2026-05-01T09:40:50.694Z</time></trkpt><trkpt lat="37.8489899" lon="12.4671357"><ele>2.0</ele><time>2026-05-01T09:40:53.695Z</time></trkpt><trkpt lat="37.8489621" lon="12.4670542"><ele>1.9999999999999998</ele><time>2026-05-01T09:40:56.695Z</time></trkpt><trkpt lat="37.8489328" lon="12.4669742"><ele>2.0</ele><time>2026-05-01T09:40:59.695Z</time></trkpt><trkpt lat="37.848908" lon="12.4668858"><ele>2.0</ele><time>2026-05-01T09:41:02.695Z</time></trkpt><trkpt lat="37.8488832" lon="12.4667988"><ele>1.9999999999999998</ele><time>2026-05-01T09:41:05.696Z</time></trkpt><trkpt lat="37.8488589" lon="12.4667148"><ele>2.0</ele><time>2026-05-01T09:41:08.695Z</time></trkpt><trkpt lat="37.8488272" lon="12.4666334"><ele>2.0</ele><time>2026-05-01T09:41:11.696Z</time></trkpt><trkpt lat="37.8487891" lon="12.4665542"><ele>1.9999999999999998</ele><time>2026-05-01T09:41:14.695Z</time></trkpt><trkpt lat="37.8487494" lon="12.4664789"><ele>2.0</ele><time>2026-05-01T09:41:17.696Z</time></trkpt><trkpt lat="37.8487069" lon="12.4664036"><ele>2.0</ele><time>2026-05-01T09:41:20.696Z</time></trkpt><trkpt lat="37.848655" lon="12.4663251"><ele>2.0</ele><time>2026-05-01T09:41:23.695Z</time></trkpt><trkpt lat="37.8486021" lon="12.4662372"><ele>1.9999999999999998</ele><time>2026-05-01T09:41:27.696Z</time></trkpt><trkpt lat="37.8485568" lon="12.4661678"><ele>2.0</ele><time>2026-05-01T09:41:30.695Z</time></trkpt><trkpt lat="37.8485069" lon="12.4660997"><ele>1.857142857142857</ele><time>2026-05-01T09:41:33.696Z</time></trkpt><trkpt lat="37.8484602" lon="12.4660302"><ele>1.714285714285714</ele><time>2026-05-01T09:41:36.695Z</time></trkpt><trkpt lat="37.8484165" lon="12.4659641"><ele>1.5714285714285714</ele><time>2026-05-01T09:41:39.696Z</time></trkpt><trkpt lat="37.8483656" lon="12.4659057"><ele>1.4285714285714284</ele><time>2026-05-01T09:41:42.696Z</time></trkpt><trkpt lat="37.8483107" lon="12.4658582"><ele>1.2857142857142856</ele><time>2026-05-01T09:41:45.696Z</time></trkpt><trkpt lat="37.8482532" lon="12.4658138"><ele>1.1428571428571428</ele><time>2026-05-01T09:41:48.695Z</time></trkpt><trkpt lat="37.8481916" lon="12.4657721"><ele>1.0</ele><time>2026-05-01T09:41:51.695Z</time></trkpt><trkpt lat="37.8481246" lon="12.4657205"><ele>0.8571428571428571</ele><time>2026-05-01T09:41:54.695Z</time></trkpt><trkpt lat="37.8480719" lon="12.465675"><ele>0.7142857142857142</ele><time>2026-05-01T09:41:57.695Z</time></trkpt><trkpt lat="37.8480008" lon="12.465639"><ele>0.5714285714285714</ele><time>2026-05-01T09:42:00.695Z</time></trkpt><trkpt lat="37.8479525" lon="12.4655861"><ele>0.42857142857142855</ele><time>2026-05-01T09:42:03.696Z</time></trkpt><trkpt lat="37.8478899" lon="12.4655617"><ele>0.2857142857142857</ele><time>2026-05-01T09:42:06.695Z</time></trkpt><trkpt lat="37.8478444" lon="12.4654987"><ele>0.14285714285714285</ele><time>2026-05-01T09:42:09.695Z</time></trkpt><trkpt lat="37.8478063" lon="12.4654117"><ele>0.0</ele><time>2026-05-01T09:42:12.695Z</time></trkpt><trkpt lat="37.8477786" lon="12.4653039"><ele>0.0</ele><time>2026-05-01T09:42:15.696Z</time></trkpt><trkpt lat="37.8477516" lon="12.465195"><ele>0.0</ele><time>2026-05-01T09:42:18.696Z</time></trkpt><trkpt lat="37.8477164" lon="12.4651033"><ele>0.0</ele><time>2026-05-01T09:42:21.696Z</time></trkpt><trkpt lat="37.8476625" lon="12.4650359"><ele>0.0</ele><time>2026-05-01T09:42:24.696Z</time></trkpt><trkpt lat="37.8476017" lon="12.4649886"><ele>0.0</ele><time>2026-05-01T09:42:27.607Z</time></trkpt><trkpt lat="37.8475388" lon="12.4649443"><ele>0.0</ele><time>2026-05-01T09:42:30.653Z</time></trkpt><trkpt lat="37.847476" lon="12.4649041"><ele>0.42857142857142855</ele><time>2026-05-01T09:42:33.694Z</time></trkpt><trkpt lat="37.8474001" lon="12.4648674"><ele>0.8571428571428571</ele><time>2026-05-01T09:42:37.695Z</time></trkpt><trkpt lat="37.8473202" lon="12.4648543"><ele>1.2857142857142856</ele><time>2026-05-01T09:42:41.696Z</time></trkpt><trkpt lat="37.8472534" lon="12.4648497"><ele>1.7142857142857142</ele><time>2026-05-01T09:42:44.696Z</time></trkpt><trkpt lat="37.8471891" lon="12.4648475"><ele>2.142857142857143</ele><time>2026-05-01T09:42:47.637Z</time></trkpt><trkpt lat="37.8471257" lon="12.4648398"><ele>2.571428571428571</ele><time>2026-05-01T09:42:50.653Z</time></trkpt><trkpt lat="37.8470437" lon="12.4648346"><ele>3.0</ele><time>2026-05-01T09:42:54.696Z</time></trkpt><trkpt lat="37.8469789" lon="12.4648375"><ele>2.9999999999999996</ele><time>2026-05-01T09:42:57.695Z</time></trkpt><trkpt lat="37.8468962" lon="12.4648497"><ele>3.0</ele><time>2026-05-01T09:43:01.67Z</time></trkpt><trkpt lat="37.8468274" lon="12.4648602"><ele>3.0</ele><time>2026-05-01T09:43:04.651Z</time></trkpt><trkpt lat="37.8467614" lon="12.4648739"><ele>3.0</ele><time>2026-05-01T09:43:07.65Z</time></trkpt><trkpt lat="37.8466986" lon="12.4648813"><ele>3.0</ele><time>2026-05-01T09:43:10.666Z</time></trkpt><trkpt lat="37.846635" lon="12.4648944"><ele>2.9999999999999996</ele><time>2026-05-01T09:43:13.69Z</time></trkpt><trkpt lat="37.8465663" lon="12.4649057"><ele>3.0</ele><time>2026-05-01T09:43:16.713Z</time></trkpt><trkpt lat="37.8464962" lon="12.4649152"><ele>3.1428571428571423</ele><time>2026-05-01T09:43:19.695Z</time></trkpt><trkpt lat="37.8464272" lon="12.4649212"><ele>3.2857142857142856</ele><time>2026-05-01T09:43:22.695Z</time></trkpt><trkpt lat="37.8463576" lon="12.4649257"><ele>3.4285714285714284</ele><time>2026-05-01T09:43:25.695Z</time></trkpt><trkpt lat="37.8462908" lon="12.4649294"><ele>3.571428571428571</ele><time>2026-05-01T09:43:28.591Z</time></trkpt><trkpt lat="37.8462144" lon="12.4649345"><ele>3.714285714285714</ele><time>2026-05-01T09:43:31.696Z</time></trkpt><trkpt lat="37.8461433" lon="12.4649369"><ele>3.8571428571428568</ele><time>2026-05-01T09:43:34.695Z</time></trkpt><trkpt lat="37.846072" lon="12.4649392"><ele>4.0</ele><time>2026-05-01T09:43:37.695Z</time></trkpt><trkpt lat="37.8459969" lon="12.464942"><ele>4.142857142857142</ele><time>2026-05-01T09:43:40.696Z</time></trkpt><trkpt lat="37.8459299" lon="12.4649391"><ele>4.285714285714286</ele><time>2026-05-01T09:43:43.696Z</time></trkpt><trkpt lat="37.8458585" lon="12.4649211"><ele>4.428571428571429</ele><time>2026-05-01T09:43:46.695Z</time></trkpt><trkpt lat="37.845788" lon="12.4648929"><ele>4.571428571428571</ele><time>2026-05-01T09:43:49.696Z</time></trkpt><trkpt lat="37.8457169" lon="12.46486"><ele>4.714285714285714</ele><time>2026-05-01T09:43:52.696Z</time></trkpt><trkpt lat="37.8456517" lon="12.4648324"><ele>4.857142857142857</ele><time>2026-05-01T09:43:55.695Z</time></trkpt><trkpt lat="37.8455861" lon="12.4648053"><ele>5.0</ele><time>2026-05-01T09:43:58.696Z</time></trkpt><trkpt lat="37.8455186" lon="12.4647821"><ele>5.0</ele><time>2026-05-01T09:44:01.696Z</time></trkpt><trkpt lat="37.8454468" lon="12.4647717"><ele>5.0</ele><time>2026-05-01T09:44:04.696Z</time></trkpt><trkpt lat="37.8453798" lon="12.4647721"><ele>5.0</ele><time>2026-05-01T09:44:07.696Z</time></trkpt><trkpt lat="37.8453067" lon="12.4647876"><ele>5.0</ele><time>2026-05-01T09:44:10.696Z</time></trkpt><trkpt lat="37.8452302" lon="12.4647956"><ele>5.0</ele><time>2026-05-01T09:44:13.696Z</time></trkpt><trkpt lat="37.8451577" lon="12.4647978"><ele>5.0</ele><time>2026-05-01T09:44:16.696Z</time></trkpt><trkpt lat="37.8450864" lon="12.464797"><ele>5.0</ele><time>2026-05-01T09:44:19.695Z</time></trkpt><trkpt lat="37.8450146" lon="12.4647891"><ele>5.0</ele><time>2026-05-01T09:44:22.696Z</time></trkpt><trkpt lat="37.8449393" lon="12.4647676"><ele>5.0</ele><time>2026-05-01T09:44:25.695Z</time></trkpt><trkpt lat="37.844865" lon="12.4647558"><ele>5.0</ele><time>2026-05-01T09:44:28.696Z</time></trkpt><trkpt lat="37.8447941" lon="12.4647438"><ele>5.0</ele><time>2026-05-01T09:44:31.695Z</time></trkpt><trkpt lat="37.8447246" lon="12.4647342"><ele>5.0</ele><time>2026-05-01T09:44:34.695Z</time></trkpt><trkpt lat="37.8446558" lon="12.4647276"><ele>5.0</ele><time>2026-05-01T09:44:37.696Z</time></trkpt><trkpt lat="37.8445853" lon="12.4647209"><ele>5.0</ele><time>2026-05-01T09:44:40.696Z</time></trkpt><trkpt lat="37.8445114" lon="12.464733"><ele>5.0</ele><time>2026-05-01T09:44:43.696Z</time></trkpt><trkpt lat="37.844436" lon="12.4647513"><ele>5.0</ele><time>2026-05-01T09:44:46.695Z</time></trkpt><trkpt lat="37.8443639" lon="12.4647633"><ele>5.0</ele><time>2026-05-01T09:44:49.695Z</time></trkpt><trkpt lat="37.8442932" lon="12.464779"><ele>5.0</ele><time>2026-05-01T09:44:52.696Z</time></trkpt><trkpt lat="37.8442236" lon="12.4647812"><ele>5.0</ele><time>2026-05-01T09:44:55.695Z</time></trkpt><trkpt lat="37.844153" lon="12.4647794"><ele>5.0</ele><time>2026-05-01T09:44:58.696Z</time></trkpt><trkpt lat="37.8440813" lon="12.4647693"><ele>5.0</ele><time>2026-05-01T09:45:01.696Z</time></trkpt><trkpt lat="37.8440097" lon="12.4647665"><ele>4.857142857142857</ele><time>2026-05-01T09:45:04.695Z</time></trkpt><trkpt lat="37.8439378" lon="12.4647593"><ele>4.714285714285714</ele><time>2026-05-01T09:45:07.696Z</time></trkpt><trkpt lat="37.8438669" lon="12.4647611"><ele>4.571428571428571</ele><time>2026-05-01T09:45:10.695Z</time></trkpt><trkpt lat="37.8437984" lon="12.4647624"><ele>4.428571428571429</ele><time>2026-05-01T09:45:13.673Z</time></trkpt><trkpt lat="37.8437233" lon="12.4647388"><ele>4.285714285714286</ele><time>2026-05-01T09:45:16.695Z</time></trkpt><trkpt lat="37.8436547" lon="12.4647008"><ele>4.142857142857142</ele><time>2026-05-01T09:45:19.696Z</time></trkpt><trkpt lat="37.8435891" lon="12.4646662"><ele>4.0</ele><time>2026-05-01T09:45:22.696Z</time></trkpt><trkpt lat="37.8435181" lon="12.4646367"><ele>4.0</ele><time>2026-05-01T09:45:25.696Z</time></trkpt><trkpt lat="37.8434519" lon="12.4646138"><ele>3.9999999999999996</ele><time>2026-05-01T09:45:28.696Z</time></trkpt><trkpt lat="37.8433826" lon="12.464596"><ele>4.0</ele><time>2026-05-01T09:45:31.696Z</time></trkpt><trkpt lat="37.8433142" lon="12.464576"><ele>4.0</ele><time>2026-05-01T09:45:34.695Z</time></trkpt><trkpt lat="37.8432418" lon="12.464554"><ele>3.9999999999999996</ele><time>2026-05-01T09:45:37.696Z</time></trkpt><trkpt lat="37.8431878" lon="12.4645118"><ele>4.0</ele><time>2026-05-01T09:45:40.696Z</time></trkpt><trkpt lat="37.8431276" lon="12.4644697"><ele>4.0</ele><time>2026-05-01T09:45:43.696Z</time></trkpt><trkpt lat="37.843062" lon="12.4644395"><ele>3.8571428571428568</ele><time>2026-05-01T09:45:46.696Z</time></trkpt><trkpt lat="37.8429934" lon="12.4644165"><ele>3.714285714285714</ele><time>2026-05-01T09:45:49.695Z</time></trkpt><trkpt lat="37.8429317" lon="12.4643953"><ele>3.571428571428571</ele><time>2026-05-01T09:45:52.494Z</time></trkpt><trkpt lat="37.8428604" lon="12.4643731"><ele>3.4285714285714284</ele><time>2026-05-01T09:45:55.613Z</time></trkpt><trkpt lat="37.8427908" lon="12.4643518"><ele>3.2857142857142856</ele><time>2026-05-01T09:45:58.695Z</time></trkpt><trkpt lat="37.8427243" lon="12.4643289"><ele>3.1428571428571423</ele><time>2026-05-01T09:46:01.696Z</time></trkpt><trkpt lat="37.8426603" lon="12.4642964"><ele>3.0</ele><time>2026-05-01T09:46:04.696Z</time></trkpt><trkpt lat="37.8425996" lon="12.4642666"><ele>2.9999999999999996</ele><time>2026-05-01T09:46:07.692Z</time></trkpt><trkpt lat="37.8425352" lon="12.4642307"><ele>3.0</ele><time>2026-05-01T09:46:10.696Z</time></trkpt><trkpt lat="37.8424689" lon="12.4641893"><ele>3.0</ele><time>2026-05-01T09:46:13.694Z</time></trkpt><trkpt lat="37.8424048" lon="12.4641503"><ele>3.0</ele><time>2026-05-01T09:46:16.676Z</time></trkpt><trkpt lat="37.8423441" lon="12.4641075"><ele>3.0</ele><time>2026-05-01T09:46:19.675Z</time></trkpt><trkpt lat="37.8422805" lon="12.4640652"><ele>2.9999999999999996</ele><time>2026-05-01T09:46:22.696Z</time></trkpt><trkpt lat="37.8422253" lon="12.4640116"><ele>3.0</ele><time>2026-05-01T09:46:25.656Z</time></trkpt><trkpt lat="37.8421629" lon="12.4639699"><ele>2.9999999999999996</ele><time>2026-05-01T09:46:28.695Z</time></trkpt><trkpt lat="37.8421013" lon="12.4639319"><ele>3.0</ele><time>2026-05-01T09:46:31.695Z</time></trkpt><trkpt lat="37.8420395" lon="12.4638938"><ele>3.0</ele><time>2026-05-01T09:46:34.698Z</time></trkpt><trkpt lat="37.8419662" lon="12.463845"><ele>3.0</ele><time>2026-05-01T09:46:37.696Z</time></trkpt><trkpt lat="37.8419054" lon="12.4638074"><ele>3.0</ele><time>2026-05-01T09:46:41.695Z</time></trkpt><trkpt lat="37.8418424" lon="12.4637643"><ele>2.9999999999999996</ele><time>2026-05-01T09:46:44.696Z</time></trkpt><trkpt lat="37.8417736" lon="12.4637275"><ele>3.0</ele><time>2026-05-01T09:46:47.696Z</time></trkpt><trkpt lat="37.8416963" lon="12.4636881"><ele>3.2857142857142856</ele><time>2026-05-01T09:46:50.695Z</time></trkpt><trkpt lat="37.8416129" lon="12.4636776"><ele>3.571428571428571</ele><time>2026-05-01T09:46:54.69Z</time></trkpt><trkpt lat="37.841573" lon="12.4637472"><ele>3.8571428571428568</ele><time>2026-05-01T09:46:57.689Z</time></trkpt><trkpt lat="37.8415819" lon="12.4638417"><ele>4.142857142857142</ele><time>2026-05-01T09:47:00.696Z</time></trkpt><trkpt lat="37.841592" lon="12.463926"><ele>4.428571428571429</ele><time>2026-05-01T09:47:03.696Z</time></trkpt><trkpt lat="37.8415992" lon="12.4640093"><ele>4.714285714285714</ele><time>2026-05-01T09:47:06.695Z</time></trkpt><trkpt lat="37.841606" lon="12.464094"><ele>5.0</ele><time>2026-05-01T09:47:09.695Z</time></trkpt><trkpt lat="37.8416074" lon="12.4641769"><ele>5.0</ele><time>2026-05-01T09:47:12.611Z</time></trkpt><trkpt lat="37.8416156" lon="12.4642646"><ele>5.0</ele><time>2026-05-01T09:47:15.678Z</time></trkpt><trkpt lat="37.8416253" lon="12.4643462"><ele>5.0</ele><time>2026-05-01T09:47:18.694Z</time></trkpt><trkpt lat="37.8416374" lon="12.4644371"><ele>5.0</ele><time>2026-05-01T09:47:22.696Z</time></trkpt><trkpt lat="37.8416418" lon="12.4645206"><ele>5.0</ele><time>2026-05-01T09:47:25.696Z</time></trkpt><trkpt lat="37.8416429" lon="12.4646266"><ele>5.0</ele><time>2026-05-01T09:47:29.695Z</time></trkpt><trkpt lat="37.8416321" lon="12.4647135"><ele>5.0</ele><time>2026-05-01T09:47:32.696Z</time></trkpt><trkpt lat="37.8416153" lon="12.4647986"><ele>5.0</ele><time>2026-05-01T09:47:35.696Z</time></trkpt><trkpt lat="37.8415905" lon="12.4648826"><ele>5.0</ele><time>2026-05-01T09:47:38.694Z</time></trkpt><trkpt lat="37.8415638" lon="12.4649662"><ele>5.0</ele><time>2026-05-01T09:47:41.695Z</time></trkpt><trkpt lat="37.8415345" lon="12.4650492"><ele>5.0</ele><time>2026-05-01T09:47:44.695Z</time></trkpt><trkpt lat="37.8415076" lon="12.4651324"><ele>5.0</ele><time>2026-05-01T09:47:47.695Z</time></trkpt><trkpt lat="37.8414857" lon="12.465218"><ele>5.0</ele><time>2026-05-01T09:47:50.694Z</time></trkpt><trkpt lat="37.8414622" lon="12.4653044"><ele>5.0</ele><time>2026-05-01T09:47:53.695Z</time></trkpt><trkpt lat="37.8414395" lon="12.4653852"><ele>4.857142857142857</ele><time>2026-05-01T09:47:56.695Z</time></trkpt><trkpt lat="37.8414141" lon="12.4654674"><ele>4.714285714285714</ele><time>2026-05-01T09:47:59.694Z</time></trkpt><trkpt lat="37.8413911" lon="12.4655475"><ele>4.571428571428571</ele><time>2026-05-01T09:48:02.615Z</time></trkpt><trkpt lat="37.8413668" lon="12.4656302"><ele>4.428571428571429</ele><time>2026-05-01T09:48:05.695Z</time></trkpt><trkpt lat="37.8413439" lon="12.4657112"><ele>4.285714285714286</ele><time>2026-05-01T09:48:08.673Z</time></trkpt><trkpt lat="37.841325" lon="12.4657995"><ele>4.142857142857142</ele><time>2026-05-01T09:48:11.695Z</time></trkpt><trkpt lat="37.8413048" lon="12.4658859"><ele>4.0</ele><time>2026-05-01T09:48:14.694Z</time></trkpt><trkpt lat="37.8412771" lon="12.4659697"><ele>4.0</ele><time>2026-05-01T09:48:17.691Z</time></trkpt><trkpt lat="37.8412346" lon="12.4660419"><ele>3.9999999999999996</ele><time>2026-05-01T09:48:20.694Z</time></trkpt><trkpt lat="37.8411956" lon="12.4661156"><ele>4.0</ele><time>2026-05-01T09:48:23.695Z</time></trkpt><trkpt lat="37.8411681" lon="12.4661941"><ele>4.0</ele><time>2026-05-01T09:48:26.694Z</time></trkpt><trkpt lat="37.8411413" lon="12.4662715"><ele>3.9999999999999996</ele><time>2026-05-01T09:48:29.694Z</time></trkpt><trkpt lat="37.8411069" lon="12.466349"><ele>4.0</ele><time>2026-05-01T09:48:32.695Z</time></trkpt><trkpt lat="37.8410685" lon="12.4664316"><ele>4.0</ele><time>2026-05-01T09:48:35.632Z</time></trkpt><trkpt lat="37.8410181" lon="12.4665077"><ele>4.0</ele><time>2026-05-01T09:48:39.695Z</time></trkpt><trkpt lat="37.8409675" lon="12.4665572"><ele>3.9999999999999996</ele><time>2026-05-01T09:48:42.694Z</time></trkpt><trkpt lat="37.8409164" lon="12.4666123"><ele>4.0</ele><time>2026-05-01T09:48:45.694Z</time></trkpt><trkpt lat="37.8408655" lon="12.46667"><ele>4.0</ele><time>2026-05-01T09:48:48.694Z</time></trkpt><trkpt lat="37.8408123" lon="12.4667288"><ele>3.9999999999999996</ele><time>2026-05-01T09:48:51.694Z</time></trkpt><trkpt lat="37.8407604" lon="12.4667871"><ele>4.0</ele><time>2026-05-01T09:48:54.695Z</time></trkpt><trkpt lat="37.8407027" lon="12.4668419"><ele>4.0</ele><time>2026-05-01T09:48:57.694Z</time></trkpt><trkpt lat="37.8406417" lon="12.4668916"><ele>4.0</ele><time>2026-05-01T09:49:00.694Z</time></trkpt><trkpt lat="37.8405794" lon="12.4669383"><ele>3.9999999999999996</ele><time>2026-05-01T09:49:03.695Z</time></trkpt><trkpt lat="37.8405191" lon="12.4669886"><ele>4.0</ele><time>2026-05-01T09:49:06.694Z</time></trkpt><trkpt lat="37.840462" lon="12.4670355"><ele>4.0</ele><time>2026-05-01T09:49:09.694Z</time></trkpt><trkpt lat="37.8404031" lon="12.467086"><ele>3.9999999999999996</ele><time>2026-05-01T09:49:12.695Z</time></trkpt><trkpt lat="37.8403382" lon="12.4671273"><ele>4.0</ele><time>2026-05-01T09:49:15.695Z</time></trkpt><trkpt lat="37.8402731" lon="12.4671669"><ele>4.0</ele><time>2026-05-01T09:49:18.695Z</time></trkpt><trkpt lat="37.8402081" lon="12.4672003"><ele>4.0</ele><time>2026-05-01T09:49:21.695Z</time></trkpt><trkpt lat="37.8401432" lon="12.4672244"><ele>3.9999999999999996</ele><time>2026-05-01T09:49:24.474Z</time></trkpt><trkpt lat="37.8400676" lon="12.4672439"><ele>4.0</ele><time>2026-05-01T09:49:27.694Z</time></trkpt><trkpt lat="37.8399977" lon="12.4672563"><ele>4.0</ele><time>2026-05-01T09:49:30.694Z</time></trkpt><trkpt lat="37.839926" lon="12.4672701"><ele>3.9999999999999996</ele><time>2026-05-01T09:49:33.694Z</time></trkpt><trkpt lat="37.8398533" lon="12.4672831"><ele>4.0</ele><time>2026-05-01T09:49:36.694Z</time></trkpt><trkpt lat="37.8397831" lon="12.4673002"><ele>4.0</ele><time>2026-05-01T09:49:39.695Z</time></trkpt><trkpt lat="37.8397168" lon="12.4673259"><ele>3.8571428571428568</ele><time>2026-05-01T09:49:42.694Z</time></trkpt><trkpt lat="37.8396362" lon="12.4673515"><ele>3.714285714285714</ele><time>2026-05-01T09:49:45.695Z</time></trkpt><trkpt lat="37.8395533" lon="12.467377"><ele>3.571428571428571</ele><time>2026-05-01T09:49:49.695Z</time></trkpt><trkpt lat="37.8394834" lon="12.4673935"><ele>3.4285714285714284</ele><time>2026-05-01T09:49:52.694Z</time></trkpt><trkpt lat="37.83942" lon="12.467425"><ele>3.2857142857142856</ele><time>2026-05-01T09:49:55.607Z</time></trkpt><trkpt lat="37.8393594" lon="12.4674816"><ele>3.1428571428571423</ele><time>2026-05-01T09:49:58.695Z</time></trkpt><trkpt lat="37.8393164" lon="12.4675427"><ele>3.0</ele><time>2026-05-01T09:50:01.694Z</time></trkpt><trkpt lat="37.8392682" lon="12.467606"><ele>2.9999999999999996</ele><time>2026-05-01T09:50:04.695Z</time></trkpt><trkpt lat="37.8392258" lon="12.4676805"><ele>3.0</ele><time>2026-05-01T09:50:07.695Z</time></trkpt><trkpt lat="37.839173" lon="12.4677423"><ele>3.0</ele><time>2026-05-01T09:50:10.694Z</time></trkpt><trkpt lat="37.8391099" lon="12.467788"><ele>3.0</ele><time>2026-05-01T09:50:13.695Z</time></trkpt><trkpt lat="37.8390546" lon="12.4678481"><ele>3.0</ele><time>2026-05-01T09:50:16.695Z</time></trkpt><trkpt lat="37.8389979" lon="12.4679062"><ele>2.9999999999999996</ele><time>2026-05-01T09:50:19.694Z</time></trkpt><trkpt lat="37.8389405" lon="12.4679591"><ele>3.0</ele><time>2026-05-01T09:50:22.695Z</time></trkpt><trkpt lat="37.8388808" lon="12.4680086"><ele>3.1428571428571423</ele><time>2026-05-01T09:50:25.695Z</time></trkpt><trkpt lat="37.8388188" lon="12.4680563"><ele>3.2857142857142856</ele><time>2026-05-01T09:50:28.694Z</time></trkpt><trkpt lat="37.8387523" lon="12.468092"><ele>3.4285714285714284</ele><time>2026-05-01T09:50:31.694Z</time></trkpt><trkpt lat="37.8386884" lon="12.468125"><ele>3.571428571428571</ele><time>2026-05-01T09:50:34.694Z</time></trkpt><trkpt lat="37.838623" lon="12.4681577"><ele>3.714285714285714</ele><time>2026-05-01T09:50:37.694Z</time></trkpt><trkpt lat="37.8385559" lon="12.4681899"><ele>3.8571428571428568</ele><time>2026-05-01T09:50:40.666Z</time></trkpt><trkpt lat="37.8384817" lon="12.4682271"><ele>4.0</ele><time>2026-05-01T09:50:43.707Z</time></trkpt><trkpt lat="37.838424" lon="12.4682595"><ele>4.142857142857142</ele><time>2026-05-01T09:50:46.694Z</time></trkpt><trkpt lat="37.8383564" lon="12.4682886"><ele>4.285714285714286</ele><time>2026-05-01T09:50:49.694Z</time></trkpt><trkpt lat="37.8382889" lon="12.4683154"><ele>4.428571428571429</ele><time>2026-05-01T09:50:52.695Z</time></trkpt><trkpt lat="37.8382167" lon="12.4683411"><ele>4.571428571428571</ele><time>2026-05-01T09:50:55.695Z</time></trkpt><trkpt lat="37.8381518" lon="12.4683591"><ele>4.714285714285714</ele><time>2026-05-01T09:50:58.695Z</time></trkpt><trkpt lat="37.8380802" lon="12.4683667"><ele>4.857142857142857</ele><time>2026-05-01T09:51:01.694Z</time></trkpt><trkpt lat="37.8380102" lon="12.4683539"><ele>5.0</ele><time>2026-05-01T09:51:04.695Z</time></trkpt><trkpt lat="37.8379399" lon="12.468342"><ele>5.0</ele><time>2026-05-01T09:51:07.694Z</time></trkpt><trkpt lat="37.8378726" lon="12.468331"><ele>5.0</ele><time>2026-05-01T09:51:10.694Z</time></trkpt><trkpt lat="37.8378046" lon="12.4683192"><ele>5.0</ele><time>2026-05-01T09:51:13.695Z</time></trkpt><trkpt lat="37.8377347" lon="12.4683125"><ele>5.0</ele><time>2026-05-01T09:51:16.694Z</time></trkpt><trkpt lat="37.8376647" lon="12.4683078"><ele>5.0</ele><time>2026-05-01T09:51:19.694Z</time></trkpt><trkpt lat="37.8375978" lon="12.4682903"><ele>5.0</ele><time>2026-05-01T09:51:22.694Z</time></trkpt><trkpt lat="37.837531" lon="12.4682704"><ele>5.0</ele><time>2026-05-01T09:51:25.695Z</time></trkpt><trkpt lat="37.837462" lon="12.4682602"><ele>5.142857142857142</ele><time>2026-05-01T09:51:28.677Z</time></trkpt><trkpt lat="37.8373905" lon="12.4682525"><ele>5.285714285714286</ele><time>2026-05-01T09:51:31.628Z</time></trkpt><trkpt lat="37.8373176" lon="12.4682381"><ele>5.428571428571429</ele><time>2026-05-01T09:51:34.61Z</time></trkpt><trkpt lat="37.8372431" lon="12.4682277"><ele>5.571428571428571</ele><time>2026-05-01T09:51:37.694Z</time></trkpt><trkpt lat="37.8371739" lon="12.4682072"><ele>5.714285714285714</ele><time>2026-05-01T09:51:40.694Z</time></trkpt><trkpt lat="37.8371038" lon="12.4681869"><ele>5.857142857142857</ele><time>2026-05-01T09:51:43.695Z</time></trkpt><trkpt lat="37.8370364" lon="12.4681601"><ele>6.0</ele><time>2026-05-01T09:51:46.694Z</time></trkpt><trkpt lat="37.8369639" lon="12.4681309"><ele>5.999999999999999</ele><time>2026-05-01T09:51:49.695Z</time></trkpt><trkpt lat="37.8368918" lon="12.4681099"><ele>6.0</ele><time>2026-05-01T09:51:52.676Z</time></trkpt><trkpt lat="37.8368133" lon="12.468101"><ele>6.0</ele><time>2026-05-01T09:51:55.695Z</time></trkpt><trkpt lat="37.8367406" lon="12.4681068"><ele>6.0</ele><time>2026-05-01T09:51:58.694Z</time></trkpt><trkpt lat="37.836672" lon="12.4681265"><ele>6.0</ele><time>2026-05-01T09:52:01.694Z</time></trkpt><trkpt lat="37.8366056" lon="12.4681591"><ele>5.999999999999999</ele><time>2026-05-01T09:52:04.694Z</time></trkpt><trkpt lat="37.8365461" lon="12.4682032"><ele>6.0</ele><time>2026-05-01T09:52:07.611Z</time></trkpt><trkpt lat="37.8365154" lon="12.4682841"><ele>6.142857142857142</ele><time>2026-05-01T09:52:10.613Z</time></trkpt><trkpt lat="37.8364916" lon="12.4683679"><ele>6.285714285714286</ele><time>2026-05-01T09:52:13.694Z</time></trkpt><trkpt lat="37.8364633" lon="12.4684461"><ele>6.428571428571429</ele><time>2026-05-01T09:52:16.695Z</time></trkpt><trkpt lat="37.8364248" lon="12.4685389"><ele>6.571428571428571</ele><time>2026-05-01T09:52:20.686Z</time></trkpt><trkpt lat="37.8363841" lon="12.4686353"><ele>6.714285714285714</ele><time>2026-05-01T09:52:24.695Z</time></trkpt><trkpt lat="37.8363361" lon="12.4687004"><ele>6.857142857142857</ele><time>2026-05-01T09:52:27.695Z</time></trkpt><trkpt lat="37.836275" lon="12.4687439"><ele>7.0</ele><time>2026-05-01T09:52:30.636Z</time></trkpt><trkpt lat="37.8362115" lon="12.4687945"><ele>6.714285714285714</ele><time>2026-05-01T09:52:33.695Z</time></trkpt><trkpt lat="37.8361448" lon="12.4688311"><ele>6.428571428571429</ele><time>2026-05-01T09:52:36.694Z</time></trkpt><trkpt lat="37.8360787" lon="12.4688682"><ele>6.142857142857142</ele><time>2026-05-01T09:52:39.695Z</time></trkpt><trkpt lat="37.8360125" lon="12.468906"><ele>5.857142857142858</ele><time>2026-05-01T09:52:42.694Z</time></trkpt><trkpt lat="37.83595" lon="12.4689498"><ele>5.571428571428571</ele><time>2026-05-01T09:52:45.656Z</time></trkpt><trkpt lat="37.8359092" lon="12.4690273"><ele>5.285714285714286</ele><time>2026-05-01T09:52:48.694Z</time></trkpt><trkpt lat="37.8358986" lon="12.469117"><ele>5.0</ele><time>2026-05-01T09:52:51.695Z</time></trkpt><trkpt lat="37.8359381" lon="12.4691929"><ele>5.0</ele><time>2026-05-01T09:52:54.694Z</time></trkpt><trkpt lat="37.8359967" lon="12.4692269"><ele>5.0</ele><time>2026-05-01T09:52:57.695Z</time></trkpt><trkpt lat="37.8360502" lon="12.4692714"><ele>5.0</ele><time>2026-05-01T09:53:00.695Z</time></trkpt><trkpt lat="37.8361023" lon="12.469318"><ele>5.0</ele><time>2026-05-01T09:53:03.695Z</time></trkpt><trkpt lat="37.8361535" lon="12.4693694"><ele>5.0</ele><time>2026-05-01T09:53:06.694Z</time></trkpt><trkpt lat="37.8362049" lon="12.4694227"><ele>5.0</ele><time>2026-05-01T09:53:09.699Z</time></trkpt><trkpt lat="37.8362607" lon="12.4694706"><ele>5.0</ele><time>2026-05-01T09:53:12.666Z</time></trkpt><trkpt lat="37.8363159" lon="12.4695272"><ele>5.0</ele><time>2026-05-01T09:53:15.695Z</time></trkpt><trkpt lat="37.8363699" lon="12.4695861"><ele>5.0</ele><time>2026-05-01T09:53:18.613Z</time></trkpt><trkpt lat="37.8364268" lon="12.4696471"><ele>5.0</ele><time>2026-05-01T09:53:21.693Z</time></trkpt><trkpt lat="37.8364708" lon="12.4697137"><ele>5.0</ele><time>2026-05-01T09:53:24.6Z</time></trkpt><trkpt lat="37.8365229" lon="12.4697829"><ele>5.0</ele><time>2026-05-01T09:53:27.614Z</time></trkpt><trkpt lat="37.8365762" lon="12.4698337"><ele>5.0</ele><time>2026-05-01T09:53:30.695Z</time></trkpt><trkpt lat="37.836629" lon="12.4698841"><ele>5.0</ele><time>2026-05-01T09:53:33.638Z</time></trkpt><trkpt lat="37.8366852" lon="12.4699353"><ele>4.857142857142857</ele><time>2026-05-01T09:53:36.694Z</time></trkpt><trkpt lat="37.836738" lon="12.4699934"><ele>4.714285714285714</ele><time>2026-05-01T09:53:39.69Z</time></trkpt><trkpt lat="37.8367963" lon="12.470055"><ele>4.571428571428571</ele><time>2026-05-01T09:53:42.695Z</time></trkpt><trkpt lat="37.836852" lon="12.470118"><ele>4.428571428571429</ele><time>2026-05-01T09:53:45.695Z</time></trkpt><trkpt lat="37.8369048" lon="12.4701772"><ele>4.285714285714286</ele><time>2026-05-01T09:53:48.694Z</time></trkpt><trkpt lat="37.8369595" lon="12.4702316"><ele>4.142857142857142</ele><time>2026-05-01T09:53:51.694Z</time></trkpt><trkpt lat="37.8370158" lon="12.4702914"><ele>4.0</ele><time>2026-05-01T09:53:54.694Z</time></trkpt><trkpt lat="37.8370771" lon="12.4703537"><ele>3.8571428571428568</ele><time>2026-05-01T09:53:57.694Z</time></trkpt><trkpt lat="37.8371293" lon="12.4704084"><ele>3.714285714285714</ele><time>2026-05-01T09:54:00.694Z</time></trkpt><trkpt lat="37.8371821" lon="12.4704733"><ele>3.571428571428571</ele><time>2026-05-01T09:54:03.694Z</time></trkpt><trkpt lat="37.8372363" lon="12.4705358"><ele>3.4285714285714284</ele><time>2026-05-01T09:54:06.713Z</time></trkpt><trkpt lat="37.8372891" lon="12.4706039"><ele>3.2857142857142856</ele><time>2026-05-01T09:54:09.693Z</time></trkpt><trkpt lat="37.8373396" lon="12.4706641"><ele>3.1428571428571423</ele><time>2026-05-01T09:54:12.632Z</time></trkpt><trkpt lat="37.8373919" lon="12.4707259"><ele>3.0</ele><time>2026-05-01T09:54:15.63Z</time></trkpt><trkpt lat="37.8374505" lon="12.4707868"><ele>2.9999999999999996</ele><time>2026-05-01T09:54:18.695Z</time></trkpt><trkpt lat="37.8374998" lon="12.4708459"><ele>3.0</ele><time>2026-05-01T09:54:21.606Z</time></trkpt><trkpt lat="37.837556" lon="12.4708955"><ele>3.0</ele><time>2026-05-01T09:54:24.63Z</time></trkpt><trkpt lat="37.8376079" lon="12.4709574"><ele>3.0</ele><time>2026-05-01T09:54:27.647Z</time></trkpt><trkpt lat="37.837652" lon="12.4710342"><ele>3.0</ele><time>2026-05-01T09:54:30.65Z</time></trkpt><trkpt lat="37.8376875" lon="12.4711151"><ele>2.9999999999999996</ele><time>2026-05-01T09:54:33.658Z</time></trkpt><trkpt lat="37.8377143" lon="12.4711958"><ele>3.0</ele><time>2026-05-01T09:54:36.597Z</time></trkpt><trkpt lat="37.8377401" lon="12.4712818"><ele>3.1428571428571423</ele><time>2026-05-01T09:54:39.695Z</time></trkpt><trkpt lat="37.8377598" lon="12.4713648"><ele>3.2857142857142856</ele><time>2026-05-01T09:54:42.695Z</time></trkpt><trkpt lat="37.8377661" lon="12.4714565"><ele>3.4285714285714284</ele><time>2026-05-01T09:54:45.695Z</time></trkpt><trkpt lat="37.8377479" lon="12.4715417"><ele>3.571428571428571</ele><time>2026-05-01T09:54:48.695Z</time></trkpt><trkpt lat="37.8377253" lon="12.4716204"><ele>3.714285714285714</ele><time>2026-05-01T09:54:51.497Z</time></trkpt><trkpt lat="37.8377169" lon="12.4717136"><ele>3.8571428571428568</ele><time>2026-05-01T09:54:54.694Z</time></trkpt><trkpt lat="37.8377157" lon="12.4718022"><ele>4.0</ele><time>2026-05-01T09:54:57.694Z</time></trkpt><trkpt lat="37.837711" lon="12.4718879"><ele>4.0</ele><time>2026-05-01T09:55:00.694Z</time></trkpt><trkpt lat="37.837709" lon="12.4719694"><ele>3.9999999999999996</ele><time>2026-05-01T09:55:03.607Z</time></trkpt><trkpt lat="37.8377102" lon="12.4720595"><ele>4.0</ele><time>2026-05-01T09:55:06.694Z</time></trkpt><trkpt lat="37.8377064" lon="12.4721408"><ele>4.0</ele><time>2026-05-01T09:55:09.695Z</time></trkpt><trkpt lat="37.8377069" lon="12.4722263"><ele>3.9999999999999996</ele><time>2026-05-01T09:55:12.695Z</time></trkpt><trkpt lat="37.8377054" lon="12.4723082"><ele>4.0</ele><time>2026-05-01T09:55:15.602Z</time></trkpt><trkpt lat="37.8377049" lon="12.4723947"><ele>4.0</ele><time>2026-05-01T09:55:18.627Z</time></trkpt><trkpt lat="37.8376987" lon="12.4724793"><ele>3.833333333333333</ele><time>2026-05-01T09:55:21.631Z</time></trkpt><trkpt lat="37.8376877" lon="12.472567"><ele>3.6666666666666665</ele><time>2026-05-01T09:55:24.63Z</time></trkpt><trkpt lat="37.8376816" lon="12.4726599"><ele>3.5</ele><time>2026-05-01T09:55:27.654Z</time></trkpt><trkpt lat="37.837674" lon="12.472768"><ele>3.333333333333333</ele><time>2026-05-01T09:55:30.689Z</time></trkpt><trkpt lat="37.8376725" lon="12.4728744"><ele>3.1666666666666665</ele><time>2026-05-01T09:55:34.695Z</time></trkpt><trkpt lat="37.8376735" lon="12.4729613"><ele>3.0</ele><time>2026-05-01T09:55:37.695Z</time></trkpt><trkpt lat="37.8376697" lon="12.4730485"><ele>2.9999999999999996</ele><time>2026-05-01T09:55:40.694Z</time></trkpt><trkpt lat="37.8376596" lon="12.4731329"><ele>3.0</ele><time>2026-05-01T09:55:43.694Z</time></trkpt><trkpt lat="37.8376498" lon="12.4732227"><ele>3.0</ele><time>2026-05-01T09:55:46.695Z</time></trkpt><trkpt lat="37.8376317" lon="12.4733113"><ele>3.0</ele><time>2026-05-01T09:55:49.695Z</time></trkpt><trkpt lat="37.8376099" lon="12.4733958"><ele>3.0</ele><time>2026-05-01T09:55:52.695Z</time></trkpt><trkpt lat="37.837592" lon="12.473481"><ele>2.9999999999999996</ele><time>2026-05-01T09:55:55.695Z</time></trkpt><trkpt lat="37.8375671" lon="12.4735635"><ele>3.0</ele><time>2026-05-01T09:55:58.694Z</time></trkpt><trkpt lat="37.83754" lon="12.4736429"><ele>2.0</ele><time>2026-05-01T09:56:01.694Z</time></trkpt><trkpt lat="37.8375098" lon="12.4737262"><ele>2.0</ele><time>2026-05-01T09:56:04.695Z</time></trkpt><trkpt lat="37.8374815" lon="12.4738121"><ele>2.0</ele><time>2026-05-01T09:56:07.694Z</time></trkpt><trkpt lat="37.8374712" lon="12.4739116"><ele>2.0</ele><time>2026-05-01T09:56:11.695Z</time></trkpt></trkseg></trk></gpx>